<?xml version="1.0" encoding="UTF-8" standalone="no" ?>
<gpx xmlns="http://www.topografix.com/GPX/1/1" xmlns:xsi="http://www.w3.org/2001/XMLSchema-instance" xsi:schemaLocation="http://www.topografix.com/GPX/1/1 http://www.topografix.com/GPX/1/1/gpx.xsd" version="1.1" creator="VisuGPX - https://www.visugpx.com">
  <metadata>
    <name>Tour de Ceuse</name>
    <desc><![CDATA[Avec Yves,,,,,,,,,,,,,]]></desc>
  </metadata>
  <trk>
    <name><![CDATA[Actuel: 22 APR 2015 14:12]]></name>
    <trkseg>
      <trkpt lat="44.53554" lon="5.96299">
        <ele>1060.49</ele>
        <time>2015-04-22T12:12:02Z</time>
      </trkpt>
      <trkpt lat="44.53554" lon="5.96298">
        <ele>1060.53</ele>
        <time>2015-04-22T12:12:03Z</time>
      </trkpt>
      <trkpt lat="44.53561" lon="5.96297">
        <ele>1060.46</ele>
        <time>2015-04-22T12:12:14Z</time>
      </trkpt>
      <trkpt lat="44.53588" lon="5.96319">
        <ele>1057.9</ele>
        <time>2015-04-22T12:12:26Z</time>
      </trkpt>
      <trkpt lat="44.53614" lon="5.96326">
        <ele>1055.23</ele>
        <time>2015-04-22T12:12:38Z</time>
      </trkpt>
      <trkpt lat="44.53649" lon="5.96337">
        <ele>1053.11</ele>
        <time>2015-04-22T12:12:48Z</time>
      </trkpt>
      <trkpt lat="44.53697" lon="5.96344">
        <ele>1049.66</ele>
        <time>2015-04-22T12:12:56Z</time>
      </trkpt>
      <trkpt lat="44.53743" lon="5.96331">
        <ele>1046.19</ele>
        <time>2015-04-22T12:13:02Z</time>
      </trkpt>
      <trkpt lat="44.53759" lon="5.9633">
        <ele>1045.39</ele>
        <time>2015-04-22T12:13:04Z</time>
      </trkpt>
      <trkpt lat="44.53794" lon="5.96345">
        <ele>1041.87</ele>
        <time>2015-04-22T12:13:09Z</time>
      </trkpt>
      <trkpt lat="44.53808" lon="5.96353">
        <ele>1039.4</ele>
        <time>2015-04-22T12:13:12Z</time>
      </trkpt>
      <trkpt lat="44.5381" lon="5.96365">
        <ele>1038.16</ele>
        <time>2015-04-22T12:13:15Z</time>
      </trkpt>
      <trkpt lat="44.53789" lon="5.96372">
        <ele>1038.21</ele>
        <time>2015-04-22T12:13:23Z</time>
      </trkpt>
      <trkpt lat="44.53761" lon="5.96361">
        <ele>1040.87</ele>
        <time>2015-04-22T12:13:36Z</time>
      </trkpt>
      <trkpt lat="44.53743" lon="5.96386">
        <ele>1043.55</ele>
        <time>2015-04-22T12:13:46Z</time>
      </trkpt>
      <trkpt lat="44.53729" lon="5.96453">
        <ele>1043.98</ele>
        <time>2015-04-22T12:14:00Z</time>
      </trkpt>
      <trkpt lat="44.53727" lon="5.96478">
        <ele>1043.71</ele>
        <time>2015-04-22T12:14:04Z</time>
      </trkpt>
      <trkpt lat="44.53708" lon="5.96532">
        <ele>1042.68</ele>
        <time>2015-04-22T12:14:12Z</time>
      </trkpt>
      <trkpt lat="44.53684" lon="5.966">
        <ele>1041.28</ele>
        <time>2015-04-22T12:14:21Z</time>
      </trkpt>
      <trkpt lat="44.53671" lon="5.96626">
        <ele>1041.33</ele>
        <time>2015-04-22T12:14:25Z</time>
      </trkpt>
      <trkpt lat="44.53664" lon="5.9665">
        <ele>1041.96</ele>
        <time>2015-04-22T12:14:29Z</time>
      </trkpt>
      <trkpt lat="44.53659" lon="5.96725">
        <ele>1043.68</ele>
        <time>2015-04-22T12:14:40Z</time>
      </trkpt>
      <trkpt lat="44.53655" lon="5.96793">
        <ele>1043.44</ele>
        <time>2015-04-22T12:14:49Z</time>
      </trkpt>
      <trkpt lat="44.53644" lon="5.9684">
        <ele>1044.34</ele>
        <time>2015-04-22T12:14:55Z</time>
      </trkpt>
      <trkpt lat="44.53631" lon="5.96892">
        <ele>1041.35</ele>
        <time>2015-04-22T12:15:02Z</time>
      </trkpt>
      <trkpt lat="44.53621" lon="5.96926">
        <ele>1040.57</ele>
        <time>2015-04-22T12:15:07Z</time>
      </trkpt>
      <trkpt lat="44.5362" lon="5.9694">
        <ele>1040.46</ele>
        <time>2015-04-22T12:15:09Z</time>
      </trkpt>
      <trkpt lat="44.53616" lon="5.96964">
        <ele>1040.47</ele>
        <time>2015-04-22T12:15:12Z</time>
      </trkpt>
      <trkpt lat="44.53613" lon="5.96996">
        <ele>1040.61</ele>
        <time>2015-04-22T12:15:16Z</time>
      </trkpt>
      <trkpt lat="44.53611" lon="5.97031">
        <ele>1040.71</ele>
        <time>2015-04-22T12:15:21Z</time>
      </trkpt>
      <trkpt lat="44.53616" lon="5.97079">
        <ele>1040.61</ele>
        <time>2015-04-22T12:15:28Z</time>
      </trkpt>
      <trkpt lat="44.53636" lon="5.97198">
        <ele>1039.94</ele>
        <time>2015-04-22T12:15:43Z</time>
      </trkpt>
      <trkpt lat="44.53645" lon="5.97233">
        <ele>1038.88</ele>
        <time>2015-04-22T12:15:46Z</time>
      </trkpt>
      <trkpt lat="44.53653" lon="5.97258">
        <ele>1038</ele>
        <time>2015-04-22T12:15:48Z</time>
      </trkpt>
      <trkpt lat="44.53662" lon="5.97282">
        <ele>1037.09</ele>
        <time>2015-04-22T12:15:50Z</time>
      </trkpt>
      <trkpt lat="44.53705" lon="5.97368">
        <ele>1034.61</ele>
        <time>2015-04-22T12:15:59Z</time>
      </trkpt>
      <trkpt lat="44.53736" lon="5.97395">
        <ele>1035.99</ele>
        <time>2015-04-22T12:16:04Z</time>
      </trkpt>
      <trkpt lat="44.53795" lon="5.97426">
        <ele>1039.22</ele>
        <time>2015-04-22T12:16:15Z</time>
      </trkpt>
      <trkpt lat="44.53854" lon="5.97461">
        <ele>1041.37</ele>
        <time>2015-04-22T12:16:28Z</time>
      </trkpt>
      <trkpt lat="44.53868" lon="5.97482">
        <ele>1041.77</ele>
        <time>2015-04-22T12:16:33Z</time>
      </trkpt>
      <trkpt lat="44.53871" lon="5.97491">
        <ele>1041.88</ele>
        <time>2015-04-22T12:16:35Z</time>
      </trkpt>
      <trkpt lat="44.53879" lon="5.97556">
        <ele>1041.59</ele>
        <time>2015-04-22T12:16:44Z</time>
      </trkpt>
      <trkpt lat="44.53878" lon="5.97644">
        <ele>1041.94</ele>
        <time>2015-04-22T12:16:55Z</time>
      </trkpt>
      <trkpt lat="44.5386" lon="5.97723">
        <ele>1043.12</ele>
        <time>2015-04-22T12:17:07Z</time>
      </trkpt>
      <trkpt lat="44.53831" lon="5.97805">
        <ele>1044.33</ele>
        <time>2015-04-22T12:17:19Z</time>
      </trkpt>
      <trkpt lat="44.53825" lon="5.9783">
        <ele>1044.27</ele>
        <time>2015-04-22T12:17:23Z</time>
      </trkpt>
      <trkpt lat="44.53794" lon="5.97901">
        <ele>1047.19</ele>
        <time>2015-04-22T12:17:37Z</time>
      </trkpt>
      <trkpt lat="44.53763" lon="5.97953">
        <ele>1050.65</ele>
        <time>2015-04-22T12:17:49Z</time>
      </trkpt>
      <trkpt lat="44.53726" lon="5.98021">
        <ele>1051.97</ele>
        <time>2015-04-22T12:18:04Z</time>
      </trkpt>
      <trkpt lat="44.53707" lon="5.98055">
        <ele>1053.18</ele>
        <time>2015-04-22T12:18:12Z</time>
      </trkpt>
      <trkpt lat="44.53658" lon="5.98118">
        <ele>1054.97</ele>
        <time>2015-04-22T12:18:28Z</time>
      </trkpt>
      <trkpt lat="44.53617" lon="5.98166">
        <ele>1056.46</ele>
        <time>2015-04-22T12:18:41Z</time>
      </trkpt>
      <trkpt lat="44.53612" lon="5.98222">
        <ele>1057.2</ele>
        <time>2015-04-22T12:18:52Z</time>
      </trkpt>
      <trkpt lat="44.5361" lon="5.98244">
        <ele>1057.72</ele>
        <time>2015-04-22T12:18:56Z</time>
      </trkpt>
      <trkpt lat="44.53606" lon="5.98266">
        <ele>1058.32</ele>
        <time>2015-04-22T12:19:00Z</time>
      </trkpt>
      <trkpt lat="44.53576" lon="5.98316">
        <ele>1060.29</ele>
        <time>2015-04-22T12:19:11Z</time>
      </trkpt>
      <trkpt lat="44.53541" lon="5.98384">
        <ele>1062.09</ele>
        <time>2015-04-22T12:19:25Z</time>
      </trkpt>
      <trkpt lat="44.5352" lon="5.98431">
        <ele>1063.43</ele>
        <time>2015-04-22T12:19:36Z</time>
      </trkpt>
      <trkpt lat="44.53497" lon="5.98486">
        <ele>1065.01</ele>
        <time>2015-04-22T12:19:48Z</time>
      </trkpt>
      <trkpt lat="44.53475" lon="5.98545">
        <ele>1067.23</ele>
        <time>2015-04-22T12:20:00Z</time>
      </trkpt>
      <trkpt lat="44.53463" lon="5.98613">
        <ele>1070.33</ele>
        <time>2015-04-22T12:20:13Z</time>
      </trkpt>
      <trkpt lat="44.53441" lon="5.98673">
        <ele>1071.7</ele>
        <time>2015-04-22T12:20:24Z</time>
      </trkpt>
      <trkpt lat="44.53413" lon="5.98714">
        <ele>1072.16</ele>
        <time>2015-04-22T12:20:33Z</time>
      </trkpt>
      <trkpt lat="44.53344" lon="5.98773">
        <ele>1073.07</ele>
        <time>2015-04-22T12:20:50Z</time>
      </trkpt>
      <trkpt lat="44.53315" lon="5.98797">
        <ele>1072.31</ele>
        <time>2015-04-22T12:20:56Z</time>
      </trkpt>
      <trkpt lat="44.53272" lon="5.98858">
        <ele>1072.82</ele>
        <time>2015-04-22T12:21:07Z</time>
      </trkpt>
      <trkpt lat="44.53206" lon="5.98951">
        <ele>1074.46</ele>
        <time>2015-04-22T12:21:23Z</time>
      </trkpt>
      <trkpt lat="44.53181" lon="5.98984">
        <ele>1074.11</ele>
        <time>2015-04-22T12:21:29Z</time>
      </trkpt>
      <trkpt lat="44.53152" lon="5.99007">
        <ele>1073.64</ele>
        <time>2015-04-22T12:21:34Z</time>
      </trkpt>
      <trkpt lat="44.53083" lon="5.99009">
        <ele>1074.33</ele>
        <time>2015-04-22T12:21:47Z</time>
      </trkpt>
      <trkpt lat="44.53056" lon="5.98986">
        <ele>1077.35</ele>
        <time>2015-04-22T12:21:57Z</time>
      </trkpt>
      <trkpt lat="44.53028" lon="5.98963">
        <ele>1079.55</ele>
        <time>2015-04-22T12:22:06Z</time>
      </trkpt>
      <trkpt lat="44.5301" lon="5.98972">
        <ele>1079.43</ele>
        <time>2015-04-22T12:22:10Z</time>
      </trkpt>
      <trkpt lat="44.5294" lon="5.99014">
        <ele>1077.3</ele>
        <time>2015-04-22T12:22:21Z</time>
      </trkpt>
      <trkpt lat="44.52918" lon="5.99018">
        <ele>1077.2</ele>
        <time>2015-04-22T12:22:24Z</time>
      </trkpt>
      <trkpt lat="44.5289" lon="5.99063">
        <ele>1076.81</ele>
        <time>2015-04-22T12:22:31Z</time>
      </trkpt>
      <trkpt lat="44.52881" lon="5.99127">
        <ele>1079.27</ele>
        <time>2015-04-22T12:22:43Z</time>
      </trkpt>
      <trkpt lat="44.52873" lon="5.99149">
        <ele>1080.22</ele>
        <time>2015-04-22T12:22:47Z</time>
      </trkpt>
      <trkpt lat="44.52819" lon="5.99236">
        <ele>1080.81</ele>
        <time>2015-04-22T12:23:03Z</time>
      </trkpt>
      <trkpt lat="44.52768" lon="5.99323">
        <ele>1080.62</ele>
        <time>2015-04-22T12:23:17Z</time>
      </trkpt>
      <trkpt lat="44.527" lon="5.99423">
        <ele>1078.67</ele>
        <time>2015-04-22T12:23:31Z</time>
      </trkpt>
      <trkpt lat="44.52669" lon="5.99476">
        <ele>1076.23</ele>
        <time>2015-04-22T12:23:36Z</time>
      </trkpt>
      <trkpt lat="44.52635" lon="5.99531">
        <ele>1074.98</ele>
        <time>2015-04-22T12:23:42Z</time>
      </trkpt>
      <trkpt lat="44.52621" lon="5.99561">
        <ele>1075.56</ele>
        <time>2015-04-22T12:23:46Z</time>
      </trkpt>
      <trkpt lat="44.52602" lon="5.99585">
        <ele>1075.2</ele>
        <time>2015-04-22T12:23:50Z</time>
      </trkpt>
      <trkpt lat="44.52568" lon="5.99602">
        <ele>1074.91</ele>
        <time>2015-04-22T12:23:56Z</time>
      </trkpt>
      <trkpt lat="44.52527" lon="5.99662">
        <ele>1075.72</ele>
        <time>2015-04-22T12:24:07Z</time>
      </trkpt>
      <trkpt lat="44.52515" lon="5.99682">
        <ele>1075.89</ele>
        <time>2015-04-22T12:24:11Z</time>
      </trkpt>
      <trkpt lat="44.52506" lon="5.99697">
        <ele>1075.37</ele>
        <time>2015-04-22T12:24:14Z</time>
      </trkpt>
      <trkpt lat="44.52461" lon="5.99769">
        <ele>1076.53</ele>
        <time>2015-04-22T12:24:28Z</time>
      </trkpt>
      <trkpt lat="44.5241" lon="5.99849">
        <ele>1073.77</ele>
        <time>2015-04-22T12:24:40Z</time>
      </trkpt>
      <trkpt lat="44.52387" lon="5.99902">
        <ele>1070.75</ele>
        <time>2015-04-22T12:24:46Z</time>
      </trkpt>
      <trkpt lat="44.52377" lon="5.99919">
        <ele>1069.78</ele>
        <time>2015-04-22T12:24:48Z</time>
      </trkpt>
      <trkpt lat="44.5235" lon="5.99951">
        <ele>1068.83</ele>
        <time>2015-04-22T12:24:52Z</time>
      </trkpt>
      <trkpt lat="44.52325" lon="5.9997">
        <ele>1064.39</ele>
        <time>2015-04-22T12:24:55Z</time>
      </trkpt>
      <trkpt lat="44.52298" lon="6.00005">
        <ele>1060.06</ele>
        <time>2015-04-22T12:24:59Z</time>
      </trkpt>
      <trkpt lat="44.52294" lon="6.00017">
        <ele>1059.2</ele>
        <time>2015-04-22T12:25:00Z</time>
      </trkpt>
      <trkpt lat="44.52274" lon="6.00082">
        <ele>1054.55</ele>
        <time>2015-04-22T12:25:06Z</time>
      </trkpt>
      <trkpt lat="44.52262" lon="6.00093">
        <ele>1053.01</ele>
        <time>2015-04-22T12:25:09Z</time>
      </trkpt>
      <trkpt lat="44.52248" lon="6.00084">
        <ele>1052.32</ele>
        <time>2015-04-22T12:25:12Z</time>
      </trkpt>
      <trkpt lat="44.52192" lon="6.00029">
        <ele>1050.82</ele>
        <time>2015-04-22T12:25:22Z</time>
      </trkpt>
      <trkpt lat="44.52163" lon="6.00022">
        <ele>1050.4</ele>
        <time>2015-04-22T12:25:26Z</time>
      </trkpt>
      <trkpt lat="44.5207" lon="6.00068">
        <ele>1047.61</ele>
        <time>2015-04-22T12:25:38Z</time>
      </trkpt>
      <trkpt lat="44.52055" lon="6.00076">
        <ele>1047.03</ele>
        <time>2015-04-22T12:25:40Z</time>
      </trkpt>
      <trkpt lat="44.52014" lon="6.00066">
        <ele>1047.58</ele>
        <time>2015-04-22T12:25:48Z</time>
      </trkpt>
      <trkpt lat="44.5201" lon="6.00067">
        <ele>1047.89</ele>
        <time>2015-04-22T12:25:49Z</time>
      </trkpt>
      <trkpt lat="44.51959" lon="6.00078">
        <ele>1051.22</ele>
        <time>2015-04-22T12:26:03Z</time>
      </trkpt>
      <trkpt lat="44.51933" lon="6.00081">
        <ele>1051.62</ele>
        <time>2015-04-22T12:26:09Z</time>
      </trkpt>
      <trkpt lat="44.51916" lon="6.00084">
        <ele>1050.88</ele>
        <time>2015-04-22T12:26:12Z</time>
      </trkpt>
      <trkpt lat="44.51905" lon="6.00091">
        <ele>1050.34</ele>
        <time>2015-04-22T12:26:14Z</time>
      </trkpt>
      <trkpt lat="44.51863" lon="6.00108">
        <ele>1049.21</ele>
        <time>2015-04-22T12:26:20Z</time>
      </trkpt>
      <trkpt lat="44.51833" lon="6.00124">
        <ele>1048.64</ele>
        <time>2015-04-22T12:26:26Z</time>
      </trkpt>
      <trkpt lat="44.51789" lon="6.00142">
        <ele>1045.4</ele>
        <time>2015-04-22T12:26:33Z</time>
      </trkpt>
      <trkpt lat="44.5177" lon="6.00132">
        <ele>1044.04</ele>
        <time>2015-04-22T12:26:35Z</time>
      </trkpt>
      <trkpt lat="44.51751" lon="6.00122">
        <ele>1043.35</ele>
        <time>2015-04-22T12:26:37Z</time>
      </trkpt>
      <trkpt lat="44.5173" lon="6.00112">
        <ele>1041.86</ele>
        <time>2015-04-22T12:26:39Z</time>
      </trkpt>
      <trkpt lat="44.51685" lon="6.00076">
        <ele>1038.1</ele>
        <time>2015-04-22T12:26:44Z</time>
      </trkpt>
      <trkpt lat="44.51624" lon="6.00054">
        <ele>1034</ele>
        <time>2015-04-22T12:26:50Z</time>
      </trkpt>
      <trkpt lat="44.51582" lon="6.00032">
        <ele>1029.77</ele>
        <time>2015-04-22T12:26:54Z</time>
      </trkpt>
      <trkpt lat="44.51572" lon="6.00026">
        <ele>1028.55</ele>
        <time>2015-04-22T12:26:55Z</time>
      </trkpt>
      <trkpt lat="44.51542" lon="6.00016">
        <ele>1027.17</ele>
        <time>2015-04-22T12:26:58Z</time>
      </trkpt>
      <trkpt lat="44.51513" lon="6.00014">
        <ele>1026.72</ele>
        <time>2015-04-22T12:27:01Z</time>
      </trkpt>
      <trkpt lat="44.51481" lon="6.0003">
        <ele>1025.28</ele>
        <time>2015-04-22T12:27:05Z</time>
      </trkpt>
      <trkpt lat="44.5146" lon="6.00049">
        <ele>1024.63</ele>
        <time>2015-04-22T12:27:08Z</time>
      </trkpt>
      <trkpt lat="44.51394" lon="6.00062">
        <ele>1025.55</ele>
        <time>2015-04-22T12:27:18Z</time>
      </trkpt>
      <trkpt lat="44.51377" lon="6.00064">
        <ele>1025.83</ele>
        <time>2015-04-22T12:27:21Z</time>
      </trkpt>
      <trkpt lat="44.51295" lon="6.00099">
        <ele>1025.64</ele>
        <time>2015-04-22T12:27:36Z</time>
      </trkpt>
      <trkpt lat="44.51246" lon="6.00118">
        <ele>1024.91</ele>
        <time>2015-04-22T12:27:44Z</time>
      </trkpt>
      <trkpt lat="44.51174" lon="6.00148">
        <ele>1021.24</ele>
        <time>2015-04-22T12:27:56Z</time>
      </trkpt>
      <trkpt lat="44.51161" lon="6.00138">
        <ele>1018.17</ele>
        <time>2015-04-22T12:28:01Z</time>
      </trkpt>
      <trkpt lat="44.51162" lon="6.00133">
        <ele>1018</ele>
        <time>2015-04-22T12:28:02Z</time>
      </trkpt>
      <trkpt lat="44.51168" lon="6.00087">
        <ele>1018.35</ele>
        <time>2015-04-22T12:28:09Z</time>
      </trkpt>
      <trkpt lat="44.51148" lon="6.00024">
        <ele>1020.17</ele>
        <time>2015-04-22T12:28:19Z</time>
      </trkpt>
      <trkpt lat="44.51113" lon="5.99997">
        <ele>1020.57</ele>
        <time>2015-04-22T12:28:27Z</time>
      </trkpt>
      <trkpt lat="44.51099" lon="5.99985">
        <ele>1020.22</ele>
        <time>2015-04-22T12:28:31Z</time>
      </trkpt>
      <trkpt lat="44.51067" lon="5.99927">
        <ele>1020.95</ele>
        <time>2015-04-22T12:28:43Z</time>
      </trkpt>
      <trkpt lat="44.51038" lon="5.99843">
        <ele>1022.57</ele>
        <time>2015-04-22T12:28:58Z</time>
      </trkpt>
      <trkpt lat="44.5104" lon="5.99814">
        <ele>1023.05</ele>
        <time>2015-04-22T12:29:03Z</time>
      </trkpt>
      <trkpt lat="44.51084" lon="5.99713">
        <ele>1023.82</ele>
        <time>2015-04-22T12:29:19Z</time>
      </trkpt>
      <trkpt lat="44.51091" lon="5.99701">
        <ele>1023.78</ele>
        <time>2015-04-22T12:29:21Z</time>
      </trkpt>
      <trkpt lat="44.51096" lon="5.9963">
        <ele>1025.15</ele>
        <time>2015-04-22T12:29:31Z</time>
      </trkpt>
      <trkpt lat="44.51046" lon="5.99536">
        <ele>1025.26</ele>
        <time>2015-04-22T12:29:46Z</time>
      </trkpt>
      <trkpt lat="44.51018" lon="5.99484">
        <ele>1026.69</ele>
        <time>2015-04-22T12:29:55Z</time>
      </trkpt>
      <trkpt lat="44.51003" lon="5.9944">
        <ele>1028.07</ele>
        <time>2015-04-22T12:30:03Z</time>
      </trkpt>
      <trkpt lat="44.51005" lon="5.99334">
        <ele>1029.92</ele>
        <time>2015-04-22T12:30:21Z</time>
      </trkpt>
      <trkpt lat="44.51012" lon="5.99298">
        <ele>1031.68</ele>
        <time>2015-04-22T12:30:27Z</time>
      </trkpt>
      <trkpt lat="44.51009" lon="5.99275">
        <ele>1031.96</ele>
        <time>2015-04-22T12:30:31Z</time>
      </trkpt>
      <trkpt lat="44.51001" lon="5.99249">
        <ele>1032.71</ele>
        <time>2015-04-22T12:30:36Z</time>
      </trkpt>
      <trkpt lat="44.50988" lon="5.99234">
        <ele>1032.76</ele>
        <time>2015-04-22T12:30:40Z</time>
      </trkpt>
      <trkpt lat="44.50971" lon="5.99226">
        <ele>1033.78</ele>
        <time>2015-04-22T12:30:44Z</time>
      </trkpt>
      <trkpt lat="44.50906" lon="5.99213">
        <ele>1035.82</ele>
        <time>2015-04-22T12:31:00Z</time>
      </trkpt>
      <trkpt lat="44.50845" lon="5.992">
        <ele>1038.82</ele>
        <time>2015-04-22T12:31:16Z</time>
      </trkpt>
      <trkpt lat="44.50784" lon="5.99199">
        <ele>1040.34</ele>
        <time>2015-04-22T12:31:32Z</time>
      </trkpt>
      <trkpt lat="44.50761" lon="5.99209">
        <ele>1041.44</ele>
        <time>2015-04-22T12:31:37Z</time>
      </trkpt>
      <trkpt lat="44.50752" lon="5.99215">
        <ele>1041.79</ele>
        <time>2015-04-22T12:31:39Z</time>
      </trkpt>
      <trkpt lat="44.50696" lon="5.99293">
        <ele>1041.97</ele>
        <time>2015-04-22T12:31:54Z</time>
      </trkpt>
      <trkpt lat="44.50688" lon="5.99304">
        <ele>1042.08</ele>
        <time>2015-04-22T12:31:56Z</time>
      </trkpt>
      <trkpt lat="44.50669" lon="5.99342">
        <ele>1042.94</ele>
        <time>2015-04-22T12:32:03Z</time>
      </trkpt>
      <trkpt lat="44.50658" lon="5.99372">
        <ele>1043.41</ele>
        <time>2015-04-22T12:32:08Z</time>
      </trkpt>
      <trkpt lat="44.50633" lon="5.99412">
        <ele>1044.28</ele>
        <time>2015-04-22T12:32:15Z</time>
      </trkpt>
      <trkpt lat="44.50618" lon="5.99425">
        <ele>1044.36</ele>
        <time>2015-04-22T12:32:18Z</time>
      </trkpt>
      <trkpt lat="44.50555" lon="5.99479">
        <ele>1045.55</ele>
        <time>2015-04-22T12:32:32Z</time>
      </trkpt>
      <trkpt lat="44.50481" lon="5.9952">
        <ele>1045.95</ele>
        <time>2015-04-22T12:32:47Z</time>
      </trkpt>
      <trkpt lat="44.50465" lon="5.99525">
        <ele>1046.55</ele>
        <time>2015-04-22T12:32:50Z</time>
      </trkpt>
      <trkpt lat="44.50453" lon="5.99526">
        <ele>1046.76</ele>
        <time>2015-04-22T12:32:52Z</time>
      </trkpt>
      <trkpt lat="44.50399" lon="5.9952">
        <ele>1046.82</ele>
        <time>2015-04-22T12:33:02Z</time>
      </trkpt>
      <trkpt lat="44.50386" lon="5.9952">
        <ele>1046.54</ele>
        <time>2015-04-22T12:33:05Z</time>
      </trkpt>
      <trkpt lat="44.50372" lon="5.99523">
        <ele>1046.74</ele>
        <time>2015-04-22T12:33:08Z</time>
      </trkpt>
      <trkpt lat="44.50304" lon="5.99539">
        <ele>1048.27</ele>
        <time>2015-04-22T12:33:23Z</time>
      </trkpt>
      <trkpt lat="44.50295" lon="5.9954">
        <ele>1048.39</ele>
        <time>2015-04-22T12:33:25Z</time>
      </trkpt>
      <trkpt lat="44.50257" lon="5.99535">
        <ele>1049.65</ele>
        <time>2015-04-22T12:33:32Z</time>
      </trkpt>
      <trkpt lat="44.50188" lon="5.99502">
        <ele>1050.27</ele>
        <time>2015-04-22T12:33:45Z</time>
      </trkpt>
      <trkpt lat="44.50177" lon="5.99499">
        <ele>1050.23</ele>
        <time>2015-04-22T12:33:47Z</time>
      </trkpt>
      <trkpt lat="44.50111" lon="5.9949">
        <ele>1052.74</ele>
        <time>2015-04-22T12:34:01Z</time>
      </trkpt>
      <trkpt lat="44.50073" lon="5.99502">
        <ele>1053.91</ele>
        <time>2015-04-22T12:34:09Z</time>
      </trkpt>
      <trkpt lat="44.50003" lon="5.99525">
        <ele>1055.4</ele>
        <time>2015-04-22T12:34:24Z</time>
      </trkpt>
      <trkpt lat="44.49998" lon="5.99527">
        <ele>1055.71</ele>
        <time>2015-04-22T12:34:25Z</time>
      </trkpt>
      <trkpt lat="44.49926" lon="5.99544">
        <ele>1058.2</ele>
        <time>2015-04-22T12:34:40Z</time>
      </trkpt>
      <trkpt lat="44.49848" lon="5.99552">
        <ele>1060.12</ele>
        <time>2015-04-22T12:34:56Z</time>
      </trkpt>
      <trkpt lat="44.49809" lon="5.99554">
        <ele>1061.38</ele>
        <time>2015-04-22T12:35:04Z</time>
      </trkpt>
      <trkpt lat="44.49785" lon="5.9955">
        <ele>1061.92</ele>
        <time>2015-04-22T12:35:09Z</time>
      </trkpt>
      <trkpt lat="44.49724" lon="5.9952">
        <ele>1064.33</ele>
        <time>2015-04-22T12:35:23Z</time>
      </trkpt>
      <trkpt lat="44.49702" lon="5.9947">
        <ele>1065.38</ele>
        <time>2015-04-22T12:35:33Z</time>
      </trkpt>
      <trkpt lat="44.49709" lon="5.99441">
        <ele>1065.34</ele>
        <time>2015-04-22T12:35:37Z</time>
      </trkpt>
      <trkpt lat="44.49732" lon="5.99394">
        <ele>1064.66</ele>
        <time>2015-04-22T12:35:44Z</time>
      </trkpt>
      <trkpt lat="44.49759" lon="5.99363">
        <ele>1065.13</ele>
        <time>2015-04-22T12:35:50Z</time>
      </trkpt>
      <trkpt lat="44.49797" lon="5.99258">
        <ele>1066.02</ele>
        <time>2015-04-22T12:36:04Z</time>
      </trkpt>
      <trkpt lat="44.498" lon="5.99175">
        <ele>1065.32</ele>
        <time>2015-04-22T12:36:13Z</time>
      </trkpt>
      <trkpt lat="44.49783" lon="5.99035">
        <ele>1066.08</ele>
        <time>2015-04-22T12:36:28Z</time>
      </trkpt>
      <trkpt lat="44.49781" lon="5.99026">
        <ele>1066.11</ele>
        <time>2015-04-22T12:36:29Z</time>
      </trkpt>
      <trkpt lat="44.49775" lon="5.99008">
        <ele>1065.59</ele>
        <time>2015-04-22T12:36:31Z</time>
      </trkpt>
      <trkpt lat="44.49752" lon="5.98976">
        <ele>1065.96</ele>
        <time>2015-04-22T12:36:36Z</time>
      </trkpt>
      <trkpt lat="44.49679" lon="5.98921">
        <ele>1065.22</ele>
        <time>2015-04-22T12:36:50Z</time>
      </trkpt>
      <trkpt lat="44.49641" lon="5.98823">
        <ele>1065.01</ele>
        <time>2015-04-22T12:37:04Z</time>
      </trkpt>
      <trkpt lat="44.49638" lon="5.98798">
        <ele>1065.29</ele>
        <time>2015-04-22T12:37:07Z</time>
      </trkpt>
      <trkpt lat="44.4963" lon="5.98727">
        <ele>1065.44</ele>
        <time>2015-04-22T12:37:15Z</time>
      </trkpt>
      <trkpt lat="44.49601" lon="5.98673">
        <ele>1066.16</ele>
        <time>2015-04-22T12:37:22Z</time>
      </trkpt>
      <trkpt lat="44.49549" lon="5.98651">
        <ele>1065.55</ele>
        <time>2015-04-22T12:37:30Z</time>
      </trkpt>
      <trkpt lat="44.4951" lon="5.98622">
        <ele>1065.52</ele>
        <time>2015-04-22T12:37:37Z</time>
      </trkpt>
      <trkpt lat="44.49414" lon="5.98593">
        <ele>1066.46</ele>
        <time>2015-04-22T12:37:53Z</time>
      </trkpt>
      <trkpt lat="44.49295" lon="5.98565">
        <ele>1066.5</ele>
        <time>2015-04-22T12:38:13Z</time>
      </trkpt>
      <trkpt lat="44.49159" lon="5.98536">
        <ele>1065.05</ele>
        <time>2015-04-22T12:38:35Z</time>
      </trkpt>
      <trkpt lat="44.49079" lon="5.98539">
        <ele>1066.4</ele>
        <time>2015-04-22T12:38:49Z</time>
      </trkpt>
      <trkpt lat="44.48987" lon="5.98563">
        <ele>1066.6</ele>
        <time>2015-04-22T12:39:05Z</time>
      </trkpt>
      <trkpt lat="44.48883" lon="5.98589">
        <ele>1068.23</ele>
        <time>2015-04-22T12:39:23Z</time>
      </trkpt>
      <trkpt lat="44.48802" lon="5.9861">
        <ele>1067.34</ele>
        <time>2015-04-22T12:39:36Z</time>
      </trkpt>
      <trkpt lat="44.48718" lon="5.98627">
        <ele>1067.08</ele>
        <time>2015-04-22T12:39:49Z</time>
      </trkpt>
      <trkpt lat="44.48634" lon="5.98612">
        <ele>1066.83</ele>
        <time>2015-04-22T12:40:02Z</time>
      </trkpt>
      <trkpt lat="44.48601" lon="5.98602">
        <ele>1067.1</ele>
        <time>2015-04-22T12:40:08Z</time>
      </trkpt>
      <trkpt lat="44.4858" lon="5.98587">
        <ele>1066.8</ele>
        <time>2015-04-22T12:40:12Z</time>
      </trkpt>
      <trkpt lat="44.48563" lon="5.98563">
        <ele>1066.9</ele>
        <time>2015-04-22T12:40:16Z</time>
      </trkpt>
      <trkpt lat="44.48553" lon="5.98543">
        <ele>1066.56</ele>
        <time>2015-04-22T12:40:19Z</time>
      </trkpt>
      <trkpt lat="44.48526" lon="5.98513">
        <ele>1067.13</ele>
        <time>2015-04-22T12:40:25Z</time>
      </trkpt>
      <trkpt lat="44.48443" lon="5.9849">
        <ele>1068.05</ele>
        <time>2015-04-22T12:40:40Z</time>
      </trkpt>
      <trkpt lat="44.48372" lon="5.98519">
        <ele>1067.69</ele>
        <time>2015-04-22T12:40:53Z</time>
      </trkpt>
      <trkpt lat="44.48366" lon="5.98521">
        <ele>1067.67</ele>
        <time>2015-04-22T12:40:54Z</time>
      </trkpt>
      <trkpt lat="44.4834" lon="5.98519">
        <ele>1067.64</ele>
        <time>2015-04-22T12:40:58Z</time>
      </trkpt>
      <trkpt lat="44.483" lon="5.9848">
        <ele>1066.31</ele>
        <time>2015-04-22T12:41:05Z</time>
      </trkpt>
      <trkpt lat="44.48291" lon="5.98461">
        <ele>1065.48</ele>
        <time>2015-04-22T12:41:07Z</time>
      </trkpt>
      <trkpt lat="44.48245" lon="5.98373">
        <ele>1062.36</ele>
        <time>2015-04-22T12:41:15Z</time>
      </trkpt>
      <trkpt lat="44.48198" lon="5.98283">
        <ele>1058.99</ele>
        <time>2015-04-22T12:41:22Z</time>
      </trkpt>
      <trkpt lat="44.48164" lon="5.98219">
        <ele>1055.58</ele>
        <time>2015-04-22T12:41:27Z</time>
      </trkpt>
      <trkpt lat="44.48137" lon="5.9817">
        <ele>1052.36</ele>
        <time>2015-04-22T12:41:31Z</time>
      </trkpt>
      <trkpt lat="44.48077" lon="5.98078">
        <ele>1048.07</ele>
        <time>2015-04-22T12:41:39Z</time>
      </trkpt>
      <trkpt lat="44.48023" lon="5.98">
        <ele>1044.66</ele>
        <time>2015-04-22T12:41:46Z</time>
      </trkpt>
      <trkpt lat="44.47986" lon="5.97945">
        <ele>1041.03</ele>
        <time>2015-04-22T12:41:51Z</time>
      </trkpt>
      <trkpt lat="44.47943" lon="5.97883">
        <ele>1037.61</ele>
        <time>2015-04-22T12:41:57Z</time>
      </trkpt>
      <trkpt lat="44.47929" lon="5.97853">
        <ele>1035.6</ele>
        <time>2015-04-22T12:42:00Z</time>
      </trkpt>
      <trkpt lat="44.47925" lon="5.97843">
        <ele>1035.59</ele>
        <time>2015-04-22T12:42:01Z</time>
      </trkpt>
      <trkpt lat="44.47887" lon="5.97798">
        <ele>1034.59</ele>
        <time>2015-04-22T12:42:07Z</time>
      </trkpt>
      <trkpt lat="44.47837" lon="5.97726">
        <ele>1033.48</ele>
        <time>2015-04-22T12:42:19Z</time>
      </trkpt>
      <trkpt lat="44.47829" lon="5.97716">
        <ele>1034.06</ele>
        <time>2015-04-22T12:42:21Z</time>
      </trkpt>
      <trkpt lat="44.47783" lon="5.97635">
        <ele>1036.55</ele>
        <time>2015-04-22T12:42:35Z</time>
      </trkpt>
      <trkpt lat="44.4778" lon="5.9763">
        <ele>1036.71</ele>
        <time>2015-04-22T12:42:36Z</time>
      </trkpt>
      <trkpt lat="44.47761" lon="5.97591">
        <ele>1038.36</ele>
        <time>2015-04-22T12:42:43Z</time>
      </trkpt>
      <trkpt lat="44.47736" lon="5.97547">
        <ele>1040.07</ele>
        <time>2015-04-22T12:42:52Z</time>
      </trkpt>
      <trkpt lat="44.47729" lon="5.97529">
        <ele>1040.95</ele>
        <time>2015-04-22T12:42:55Z</time>
      </trkpt>
      <trkpt lat="44.47726" lon="5.97501">
        <ele>1041.78</ele>
        <time>2015-04-22T12:42:59Z</time>
      </trkpt>
      <trkpt lat="44.4773" lon="5.97407">
        <ele>1042.84</ele>
        <time>2015-04-22T12:43:12Z</time>
      </trkpt>
      <trkpt lat="44.47749" lon="5.97383">
        <ele>1042.59</ele>
        <time>2015-04-22T12:43:17Z</time>
      </trkpt>
      <trkpt lat="44.47776" lon="5.97365">
        <ele>1042.44</ele>
        <time>2015-04-22T12:43:22Z</time>
      </trkpt>
      <trkpt lat="44.47788" lon="5.97307">
        <ele>1042.29</ele>
        <time>2015-04-22T12:43:30Z</time>
      </trkpt>
      <trkpt lat="44.47758" lon="5.97292">
        <ele>1043.14</ele>
        <time>2015-04-22T12:43:35Z</time>
      </trkpt>
      <trkpt lat="44.47746" lon="5.97287">
        <ele>1042.75</ele>
        <time>2015-04-22T12:43:37Z</time>
      </trkpt>
      <trkpt lat="44.47716" lon="5.97259">
        <ele>1042.33</ele>
        <time>2015-04-22T12:43:43Z</time>
      </trkpt>
      <trkpt lat="44.47671" lon="5.97163">
        <ele>1041.58</ele>
        <time>2015-04-22T12:43:57Z</time>
      </trkpt>
      <trkpt lat="44.47658" lon="5.97133">
        <ele>1041.12</ele>
        <time>2015-04-22T12:44:01Z</time>
      </trkpt>
      <trkpt lat="44.47583" lon="5.97032">
        <ele>1041.54</ele>
        <time>2015-04-22T12:44:16Z</time>
      </trkpt>
      <trkpt lat="44.47504" lon="5.96946">
        <ele>1041.05</ele>
        <time>2015-04-22T12:44:31Z</time>
      </trkpt>
      <trkpt lat="44.47507" lon="5.96892">
        <ele>1041.85</ele>
        <time>2015-04-22T12:44:38Z</time>
      </trkpt>
      <trkpt lat="44.47531" lon="5.96853">
        <ele>1039.76</ele>
        <time>2015-04-22T12:44:43Z</time>
      </trkpt>
      <trkpt lat="44.47551" lon="5.96761">
        <ele>1035.76</ele>
        <time>2015-04-22T12:44:51Z</time>
      </trkpt>
      <trkpt lat="44.47555" lon="5.9675">
        <ele>1034.77</ele>
        <time>2015-04-22T12:44:52Z</time>
      </trkpt>
      <trkpt lat="44.4757" lon="5.96717">
        <ele>1033.36</ele>
        <time>2015-04-22T12:44:55Z</time>
      </trkpt>
      <trkpt lat="44.47577" lon="5.96695">
        <ele>1033.27</ele>
        <time>2015-04-22T12:44:57Z</time>
      </trkpt>
      <trkpt lat="44.47566" lon="5.96649">
        <ele>1032.3</ele>
        <time>2015-04-22T12:45:03Z</time>
      </trkpt>
      <trkpt lat="44.47531" lon="5.96651">
        <ele>1033.01</ele>
        <time>2015-04-22T12:45:08Z</time>
      </trkpt>
      <trkpt lat="44.475" lon="5.96671">
        <ele>1033.77</ele>
        <time>2015-04-22T12:45:13Z</time>
      </trkpt>
      <trkpt lat="44.4748" lon="5.96692">
        <ele>1034.55</ele>
        <time>2015-04-22T12:45:17Z</time>
      </trkpt>
      <trkpt lat="44.47461" lon="5.9673">
        <ele>1034.72</ele>
        <time>2015-04-22T12:45:23Z</time>
      </trkpt>
      <trkpt lat="44.47421" lon="5.96745">
        <ele>1034.21</ele>
        <time>2015-04-22T12:45:29Z</time>
      </trkpt>
      <trkpt lat="44.47312" lon="5.96757">
        <ele>1031.04</ele>
        <time>2015-04-22T12:45:42Z</time>
      </trkpt>
      <trkpt lat="44.47275" lon="5.96772">
        <ele>1028.35</ele>
        <time>2015-04-22T12:45:46Z</time>
      </trkpt>
      <trkpt lat="44.47232" lon="5.96775">
        <ele>1027.56</ele>
        <time>2015-04-22T12:45:51Z</time>
      </trkpt>
      <trkpt lat="44.47202" lon="5.96763">
        <ele>1027.76</ele>
        <time>2015-04-22T12:45:56Z</time>
      </trkpt>
      <trkpt lat="44.47122" lon="5.96758">
        <ele>1026.04</ele>
        <time>2015-04-22T12:46:07Z</time>
      </trkpt>
      <trkpt lat="44.47037" lon="5.96805">
        <ele>1023.8</ele>
        <time>2015-04-22T12:46:18Z</time>
      </trkpt>
      <trkpt lat="44.46953" lon="5.96839">
        <ele>1022.52</ele>
        <time>2015-04-22T12:46:29Z</time>
      </trkpt>
      <trkpt lat="44.46921" lon="5.96836">
        <ele>1022.18</ele>
        <time>2015-04-22T12:46:33Z</time>
      </trkpt>
      <trkpt lat="44.46789" lon="5.96775">
        <ele>1019.11</ele>
        <time>2015-04-22T12:46:50Z</time>
      </trkpt>
      <trkpt lat="44.4667" lon="5.96721">
        <ele>1018.24</ele>
        <time>2015-04-22T12:47:06Z</time>
      </trkpt>
      <trkpt lat="44.46583" lon="5.96682">
        <ele>1019.62</ele>
        <time>2015-04-22T12:47:20Z</time>
      </trkpt>
      <trkpt lat="44.46532" lon="5.96659">
        <ele>1019.58</ele>
        <time>2015-04-22T12:47:28Z</time>
      </trkpt>
      <trkpt lat="44.46478" lon="5.9668">
        <ele>1019.58</ele>
        <time>2015-04-22T12:47:36Z</time>
      </trkpt>
      <trkpt lat="44.46457" lon="5.96711">
        <ele>1019.63</ele>
        <time>2015-04-22T12:47:40Z</time>
      </trkpt>
      <trkpt lat="44.46425" lon="5.96731">
        <ele>1019.5</ele>
        <time>2015-04-22T12:47:45Z</time>
      </trkpt>
      <trkpt lat="44.46354" lon="5.96757">
        <ele>1019.7</ele>
        <time>2015-04-22T12:47:56Z</time>
      </trkpt>
      <trkpt lat="44.46318" lon="5.96759">
        <ele>1019.91</ele>
        <time>2015-04-22T12:48:02Z</time>
      </trkpt>
      <trkpt lat="44.46296" lon="5.96767">
        <ele>1020.12</ele>
        <time>2015-04-22T12:48:06Z</time>
      </trkpt>
      <trkpt lat="44.46286" lon="5.96774">
        <ele>1020.21</ele>
        <time>2015-04-22T12:48:08Z</time>
      </trkpt>
      <trkpt lat="44.46265" lon="5.96798">
        <ele>1021.06</ele>
        <time>2015-04-22T12:48:13Z</time>
      </trkpt>
      <trkpt lat="44.46252" lon="5.96821">
        <ele>1020.96</ele>
        <time>2015-04-22T12:48:17Z</time>
      </trkpt>
      <trkpt lat="44.46237" lon="5.96849">
        <ele>1021.1</ele>
        <time>2015-04-22T12:48:22Z</time>
      </trkpt>
      <trkpt lat="44.46222" lon="5.96912">
        <ele>1021.54</ele>
        <time>2015-04-22T12:48:31Z</time>
      </trkpt>
      <trkpt lat="44.46187" lon="5.96953">
        <ele>1022.1</ele>
        <time>2015-04-22T12:48:38Z</time>
      </trkpt>
      <trkpt lat="44.46167" lon="5.96963">
        <ele>1022.39</ele>
        <time>2015-04-22T12:48:41Z</time>
      </trkpt>
      <trkpt lat="44.46135" lon="5.97006">
        <ele>1023.17</ele>
        <time>2015-04-22T12:48:48Z</time>
      </trkpt>
      <trkpt lat="44.46121" lon="5.97056">
        <ele>1023.37</ele>
        <time>2015-04-22T12:48:54Z</time>
      </trkpt>
      <trkpt lat="44.46085" lon="5.971">
        <ele>1023.32</ele>
        <time>2015-04-22T12:49:01Z</time>
      </trkpt>
      <trkpt lat="44.46063" lon="5.97108">
        <ele>1023.32</ele>
        <time>2015-04-22T12:49:04Z</time>
      </trkpt>
      <trkpt lat="44.46032" lon="5.97136">
        <ele>1023.93</ele>
        <time>2015-04-22T12:49:09Z</time>
      </trkpt>
      <trkpt lat="44.45974" lon="5.97243">
        <ele>1024.38</ele>
        <time>2015-04-22T12:49:24Z</time>
      </trkpt>
      <trkpt lat="44.45946" lon="5.97327">
        <ele>1025.14</ele>
        <time>2015-04-22T12:49:34Z</time>
      </trkpt>
      <trkpt lat="44.45952" lon="5.97412">
        <ele>1024.64</ele>
        <time>2015-04-22T12:49:44Z</time>
      </trkpt>
      <trkpt lat="44.45965" lon="5.97431">
        <ele>1024.72</ele>
        <time>2015-04-22T12:49:47Z</time>
      </trkpt>
      <trkpt lat="44.46018" lon="5.97466">
        <ele>1024.67</ele>
        <time>2015-04-22T12:49:57Z</time>
      </trkpt>
      <trkpt lat="44.46033" lon="5.97516">
        <ele>1025.13</ele>
        <time>2015-04-22T12:50:04Z</time>
      </trkpt>
      <trkpt lat="44.45993" lon="5.97648">
        <ele>1025.55</ele>
        <time>2015-04-22T12:50:21Z</time>
      </trkpt>
      <trkpt lat="44.45958" lon="5.97683">
        <ele>1026.21</ele>
        <time>2015-04-22T12:50:29Z</time>
      </trkpt>
      <trkpt lat="44.45924" lon="5.97698">
        <ele>1027.37</ele>
        <time>2015-04-22T12:50:35Z</time>
      </trkpt>
      <trkpt lat="44.45885" lon="5.97751">
        <ele>1027.4</ele>
        <time>2015-04-22T12:50:44Z</time>
      </trkpt>
      <trkpt lat="44.45875" lon="5.97797">
        <ele>1027.15</ele>
        <time>2015-04-22T12:50:50Z</time>
      </trkpt>
      <trkpt lat="44.45877" lon="5.97846">
        <ele>1026.87</ele>
        <time>2015-04-22T12:50:56Z</time>
      </trkpt>
      <trkpt lat="44.45867" lon="5.97882">
        <ele>1028.12</ele>
        <time>2015-04-22T12:51:01Z</time>
      </trkpt>
      <trkpt lat="44.45807" lon="5.98007">
        <ele>1028.12</ele>
        <time>2015-04-22T12:51:20Z</time>
      </trkpt>
      <trkpt lat="44.45789" lon="5.98043">
        <ele>1028.97</ele>
        <time>2015-04-22T12:51:26Z</time>
      </trkpt>
      <trkpt lat="44.45732" lon="5.98093">
        <ele>1031.39</ele>
        <time>2015-04-22T12:51:40Z</time>
      </trkpt>
      <trkpt lat="44.45698" lon="5.98123">
        <ele>1033.56</ele>
        <time>2015-04-22T12:51:51Z</time>
      </trkpt>
      <trkpt lat="44.45661" lon="5.98153">
        <ele>1036.57</ele>
        <time>2015-04-22T12:52:03Z</time>
      </trkpt>
      <trkpt lat="44.45636" lon="5.9817">
        <ele>1037.93</ele>
        <time>2015-04-22T12:52:11Z</time>
      </trkpt>
      <trkpt lat="44.45598" lon="5.98181">
        <ele>1041.25</ele>
        <time>2015-04-22T12:52:23Z</time>
      </trkpt>
      <trkpt lat="44.45555" lon="5.98191">
        <ele>1044.28</ele>
        <time>2015-04-22T12:52:38Z</time>
      </trkpt>
      <trkpt lat="44.45514" lon="5.98199">
        <ele>1047.46</ele>
        <time>2015-04-22T12:52:52Z</time>
      </trkpt>
      <trkpt lat="44.4548" lon="5.98209">
        <ele>1050.48</ele>
        <time>2015-04-22T12:53:05Z</time>
      </trkpt>
      <trkpt lat="44.45442" lon="5.98224">
        <ele>1053.47</ele>
        <time>2015-04-22T12:53:19Z</time>
      </trkpt>
      <trkpt lat="44.45409" lon="5.98234">
        <ele>1056.44</ele>
        <time>2015-04-22T12:53:32Z</time>
      </trkpt>
      <trkpt lat="44.45374" lon="5.98239">
        <ele>1059.61</ele>
        <time>2015-04-22T12:53:45Z</time>
      </trkpt>
      <trkpt lat="44.45342" lon="5.98237">
        <ele>1062.12</ele>
        <time>2015-04-22T12:53:57Z</time>
      </trkpt>
      <trkpt lat="44.4531" lon="5.9823">
        <ele>1064.73</ele>
        <time>2015-04-22T12:54:09Z</time>
      </trkpt>
      <trkpt lat="44.45269" lon="5.98217">
        <ele>1067.74</ele>
        <time>2015-04-22T12:54:23Z</time>
      </trkpt>
      <trkpt lat="44.45235" lon="5.98194">
        <ele>1069.61</ele>
        <time>2015-04-22T12:54:35Z</time>
      </trkpt>
      <trkpt lat="44.45204" lon="5.9817">
        <ele>1068.34</ele>
        <time>2015-04-22T12:54:46Z</time>
      </trkpt>
      <trkpt lat="44.45205" lon="5.9817">
        <ele>1068.11</ele>
        <time>2015-04-22T12:55:14Z</time>
      </trkpt>
      <trkpt lat="44.45204" lon="5.98167">
        <ele>1067.94</ele>
        <time>2015-04-22T12:55:45Z</time>
      </trkpt>
      <trkpt lat="44.45202" lon="5.98167">
        <ele>1067.99</ele>
        <time>2015-04-22T12:55:52Z</time>
      </trkpt>
      <trkpt lat="44.45192" lon="5.98171">
        <ele>1067.84</ele>
        <time>2015-04-22T12:55:56Z</time>
      </trkpt>
      <trkpt lat="44.45174" lon="5.98194">
        <ele>1066.52</ele>
        <time>2015-04-22T12:56:01Z</time>
      </trkpt>
      <trkpt lat="44.45153" lon="5.9824">
        <ele>1064.65</ele>
        <time>2015-04-22T12:56:06Z</time>
      </trkpt>
      <trkpt lat="44.45123" lon="5.98279">
        <ele>1060.21</ele>
        <time>2015-04-22T12:56:10Z</time>
      </trkpt>
      <trkpt lat="44.45082" lon="5.98299">
        <ele>1057.4</ele>
        <time>2015-04-22T12:56:14Z</time>
      </trkpt>
      <trkpt lat="44.45035" lon="5.98308">
        <ele>1053.37</ele>
        <time>2015-04-22T12:56:18Z</time>
      </trkpt>
      <trkpt lat="44.44985" lon="5.98314">
        <ele>1049.47</ele>
        <time>2015-04-22T12:56:22Z</time>
      </trkpt>
      <trkpt lat="44.44948" lon="5.98318">
        <ele>1045.2</ele>
        <time>2015-04-22T12:56:25Z</time>
      </trkpt>
      <trkpt lat="44.44925" lon="5.98322">
        <ele>1041.88</ele>
        <time>2015-04-22T12:56:27Z</time>
      </trkpt>
      <trkpt lat="44.44886" lon="5.98372">
        <ele>1037.19</ele>
        <time>2015-04-22T12:56:33Z</time>
      </trkpt>
      <trkpt lat="44.44885" lon="5.98386">
        <ele>1036.57</ele>
        <time>2015-04-22T12:56:34Z</time>
      </trkpt>
      <trkpt lat="44.44876" lon="5.98453">
        <ele>1029.38</ele>
        <time>2015-04-22T12:56:39Z</time>
      </trkpt>
      <trkpt lat="44.44888" lon="5.98498">
        <ele>1025.57</ele>
        <time>2015-04-22T12:56:43Z</time>
      </trkpt>
      <trkpt lat="44.4489" lon="5.98531">
        <ele>1022.24</ele>
        <time>2015-04-22T12:56:46Z</time>
      </trkpt>
      <trkpt lat="44.44847" lon="5.98558">
        <ele>1018.68</ele>
        <time>2015-04-22T12:56:51Z</time>
      </trkpt>
      <trkpt lat="44.44825" lon="5.9856">
        <ele>1017.45</ele>
        <time>2015-04-22T12:56:53Z</time>
      </trkpt>
      <trkpt lat="44.44764" lon="5.98563">
        <ele>1013.17</ele>
        <time>2015-04-22T12:56:58Z</time>
      </trkpt>
      <trkpt lat="44.44725" lon="5.9856">
        <ele>1009.74</ele>
        <time>2015-04-22T12:57:01Z</time>
      </trkpt>
      <trkpt lat="44.44701" lon="5.98559">
        <ele>1006.18</ele>
        <time>2015-04-22T12:57:03Z</time>
      </trkpt>
      <trkpt lat="44.44653" lon="5.98573">
        <ele>1001.44</ele>
        <time>2015-04-22T12:57:07Z</time>
      </trkpt>
      <trkpt lat="44.44642" lon="5.98579">
        <ele>1001.2</ele>
        <time>2015-04-22T12:57:08Z</time>
      </trkpt>
      <trkpt lat="44.44608" lon="5.98597">
        <ele>997.96</ele>
        <time>2015-04-22T12:57:11Z</time>
      </trkpt>
      <trkpt lat="44.44585" lon="5.98611">
        <ele>996</ele>
        <time>2015-04-22T12:57:13Z</time>
      </trkpt>
      <trkpt lat="44.44509" lon="5.98631">
        <ele>990.57</ele>
        <time>2015-04-22T12:57:19Z</time>
      </trkpt>
      <trkpt lat="44.44484" lon="5.98641">
        <ele>987.3</ele>
        <time>2015-04-22T12:57:21Z</time>
      </trkpt>
      <trkpt lat="44.44472" lon="5.98647">
        <ele>986.06</ele>
        <time>2015-04-22T12:57:22Z</time>
      </trkpt>
      <trkpt lat="44.44425" lon="5.98675">
        <ele>981.1</ele>
        <time>2015-04-22T12:57:26Z</time>
      </trkpt>
      <trkpt lat="44.44413" lon="5.98679">
        <ele>979.79</ele>
        <time>2015-04-22T12:57:27Z</time>
      </trkpt>
      <trkpt lat="44.44332" lon="5.9868">
        <ele>974.69</ele>
        <time>2015-04-22T12:57:33Z</time>
      </trkpt>
      <trkpt lat="44.44291" lon="5.98672">
        <ele>971.37</ele>
        <time>2015-04-22T12:57:36Z</time>
      </trkpt>
      <trkpt lat="44.44278" lon="5.98669">
        <ele>970.19</ele>
        <time>2015-04-22T12:57:37Z</time>
      </trkpt>
      <trkpt lat="44.44256" lon="5.98662">
        <ele>967.42</ele>
        <time>2015-04-22T12:57:39Z</time>
      </trkpt>
      <trkpt lat="44.44215" lon="5.98661">
        <ele>962.04</ele>
        <time>2015-04-22T12:57:43Z</time>
      </trkpt>
      <trkpt lat="44.44184" lon="5.98677">
        <ele>958.92</ele>
        <time>2015-04-22T12:57:46Z</time>
      </trkpt>
      <trkpt lat="44.44122" lon="5.98651">
        <ele>953.54</ele>
        <time>2015-04-22T12:57:52Z</time>
      </trkpt>
      <trkpt lat="44.44099" lon="5.98613">
        <ele>951.03</ele>
        <time>2015-04-22T12:57:55Z</time>
      </trkpt>
      <trkpt lat="44.44043" lon="5.98546">
        <ele>945.77</ele>
        <time>2015-04-22T12:58:01Z</time>
      </trkpt>
      <trkpt lat="44.43994" lon="5.98517">
        <ele>941.19</ele>
        <time>2015-04-22T12:58:05Z</time>
      </trkpt>
      <trkpt lat="44.43956" lon="5.98495">
        <ele>938.11</ele>
        <time>2015-04-22T12:58:08Z</time>
      </trkpt>
      <trkpt lat="44.4392" lon="5.9847">
        <ele>934.91</ele>
        <time>2015-04-22T12:58:11Z</time>
      </trkpt>
      <trkpt lat="44.4388" lon="5.98438">
        <ele>930.71</ele>
        <time>2015-04-22T12:58:15Z</time>
      </trkpt>
      <trkpt lat="44.4387" lon="5.98432">
        <ele>929.27</ele>
        <time>2015-04-22T12:58:16Z</time>
      </trkpt>
      <trkpt lat="44.43837" lon="5.9844">
        <ele>924.19</ele>
        <time>2015-04-22T12:58:20Z</time>
      </trkpt>
      <trkpt lat="44.43798" lon="5.98459">
        <ele>919.04</ele>
        <time>2015-04-22T12:58:25Z</time>
      </trkpt>
      <trkpt lat="44.4379" lon="5.98453">
        <ele>918.49</ele>
        <time>2015-04-22T12:58:26Z</time>
      </trkpt>
      <trkpt lat="44.43773" lon="5.98442">
        <ele>917.46</ele>
        <time>2015-04-22T12:58:28Z</time>
      </trkpt>
      <trkpt lat="44.43721" lon="5.98389">
        <ele>913.61</ele>
        <time>2015-04-22T12:58:34Z</time>
      </trkpt>
      <trkpt lat="44.43696" lon="5.98362">
        <ele>910.57</ele>
        <time>2015-04-22T12:58:37Z</time>
      </trkpt>
      <trkpt lat="44.43662" lon="5.98355">
        <ele>905.78</ele>
        <time>2015-04-22T12:58:41Z</time>
      </trkpt>
      <trkpt lat="44.43646" lon="5.98371">
        <ele>903.99</ele>
        <time>2015-04-22T12:58:43Z</time>
      </trkpt>
      <trkpt lat="44.43596" lon="5.98438">
        <ele>899.69</ele>
        <time>2015-04-22T12:58:49Z</time>
      </trkpt>
      <trkpt lat="44.43585" lon="5.98449">
        <ele>898.7</ele>
        <time>2015-04-22T12:58:50Z</time>
      </trkpt>
      <trkpt lat="44.43541" lon="5.98487">
        <ele>893.26</ele>
        <time>2015-04-22T12:58:54Z</time>
      </trkpt>
      <trkpt lat="44.43531" lon="5.98494">
        <ele>891.3</ele>
        <time>2015-04-22T12:58:55Z</time>
      </trkpt>
      <trkpt lat="44.43499" lon="5.985">
        <ele>885.72</ele>
        <time>2015-04-22T12:58:59Z</time>
      </trkpt>
      <trkpt lat="44.43493" lon="5.98457">
        <ele>882.85</ele>
        <time>2015-04-22T12:59:03Z</time>
      </trkpt>
      <trkpt lat="44.43509" lon="5.98339">
        <ele>879.06</ele>
        <time>2015-04-22T12:59:11Z</time>
      </trkpt>
      <trkpt lat="44.43507" lon="5.98273">
        <ele>875.65</ele>
        <time>2015-04-22T12:59:16Z</time>
      </trkpt>
      <trkpt lat="44.43504" lon="5.98224">
        <ele>872.75</ele>
        <time>2015-04-22T12:59:24Z</time>
      </trkpt>
      <trkpt lat="44.43504" lon="5.98217">
        <ele>872.46</ele>
        <time>2015-04-22T12:59:25Z</time>
      </trkpt>
      <trkpt lat="44.43517" lon="5.98167">
        <ele>869.92</ele>
        <time>2015-04-22T12:59:32Z</time>
      </trkpt>
      <trkpt lat="44.43548" lon="5.98139">
        <ele>865.91</ele>
        <time>2015-04-22T12:59:39Z</time>
      </trkpt>
      <trkpt lat="44.43561" lon="5.98139">
        <ele>865.53</ele>
        <time>2015-04-22T12:59:41Z</time>
      </trkpt>
      <trkpt lat="44.43601" lon="5.98144">
        <ele>863.56</ele>
        <time>2015-04-22T12:59:46Z</time>
      </trkpt>
      <trkpt lat="44.43669" lon="5.98155">
        <ele>861.46</ele>
        <time>2015-04-22T12:59:54Z</time>
      </trkpt>
      <trkpt lat="44.43697" lon="5.98192">
        <ele>860.42</ele>
        <time>2015-04-22T12:59:58Z</time>
      </trkpt>
      <trkpt lat="44.43748" lon="5.98189">
        <ele>858.12</ele>
        <time>2015-04-22T13:00:04Z</time>
      </trkpt>
      <trkpt lat="44.43765" lon="5.98155">
        <ele>856.44</ele>
        <time>2015-04-22T13:00:07Z</time>
      </trkpt>
      <trkpt lat="44.43798" lon="5.98058">
        <ele>852.42</ele>
        <time>2015-04-22T13:00:14Z</time>
      </trkpt>
      <trkpt lat="44.43821" lon="5.97978">
        <ele>848.57</ele>
        <time>2015-04-22T13:00:19Z</time>
      </trkpt>
      <trkpt lat="44.43808" lon="5.9791">
        <ele>844.26</ele>
        <time>2015-04-22T13:00:24Z</time>
      </trkpt>
      <trkpt lat="44.43786" lon="5.97879">
        <ele>842.61</ele>
        <time>2015-04-22T13:00:27Z</time>
      </trkpt>
      <trkpt lat="44.43778" lon="5.978">
        <ele>839.72</ele>
        <time>2015-04-22T13:00:33Z</time>
      </trkpt>
      <trkpt lat="44.4382" lon="5.9769">
        <ele>836.27</ele>
        <time>2015-04-22T13:00:42Z</time>
      </trkpt>
      <trkpt lat="44.43868" lon="5.9756">
        <ele>833.21</ele>
        <time>2015-04-22T13:00:55Z</time>
      </trkpt>
      <trkpt lat="44.43901" lon="5.9742">
        <ele>830.6</ele>
        <time>2015-04-22T13:01:08Z</time>
      </trkpt>
      <trkpt lat="44.4393" lon="5.97273">
        <ele>827.39</ele>
        <time>2015-04-22T13:01:21Z</time>
      </trkpt>
      <trkpt lat="44.43948" lon="5.97185">
        <ele>824.12</ele>
        <time>2015-04-22T13:01:28Z</time>
      </trkpt>
      <trkpt lat="44.43972" lon="5.97137">
        <ele>820.36</ele>
        <time>2015-04-22T13:01:32Z</time>
      </trkpt>
      <trkpt lat="44.43985" lon="5.97078">
        <ele>817.44</ele>
        <time>2015-04-22T13:01:37Z</time>
      </trkpt>
      <trkpt lat="44.43972" lon="5.97051">
        <ele>817.73</ele>
        <time>2015-04-22T13:01:40Z</time>
      </trkpt>
      <trkpt lat="44.43953" lon="5.97026">
        <ele>818.67</ele>
        <time>2015-04-22T13:01:44Z</time>
      </trkpt>
      <trkpt lat="44.43943" lon="5.96996">
        <ele>818.96</ele>
        <time>2015-04-22T13:01:48Z</time>
      </trkpt>
      <trkpt lat="44.43937" lon="5.96896">
        <ele>821.12</ele>
        <time>2015-04-22T13:02:02Z</time>
      </trkpt>
      <trkpt lat="44.43934" lon="5.96857">
        <ele>822.2</ele>
        <time>2015-04-22T13:02:08Z</time>
      </trkpt>
      <trkpt lat="44.43934" lon="5.96744">
        <ele>823.59</ele>
        <time>2015-04-22T13:02:24Z</time>
      </trkpt>
      <trkpt lat="44.43953" lon="5.96611">
        <ele>822.54</ele>
        <time>2015-04-22T13:02:39Z</time>
      </trkpt>
      <trkpt lat="44.43972" lon="5.96533">
        <ele>819.34</ele>
        <time>2015-04-22T13:02:45Z</time>
      </trkpt>
      <trkpt lat="44.44008" lon="5.96448">
        <ele>816.02</ele>
        <time>2015-04-22T13:02:51Z</time>
      </trkpt>
      <trkpt lat="44.44043" lon="5.96345">
        <ele>818.06</ele>
        <time>2015-04-22T13:03:00Z</time>
      </trkpt>
      <trkpt lat="44.44075" lon="5.9624">
        <ele>820.3</ele>
        <time>2015-04-22T13:03:13Z</time>
      </trkpt>
      <trkpt lat="44.44102" lon="5.96152">
        <ele>822.18</ele>
        <time>2015-04-22T13:03:27Z</time>
      </trkpt>
      <trkpt lat="44.44117" lon="5.9612">
        <ele>822.85</ele>
        <time>2015-04-22T13:03:32Z</time>
      </trkpt>
      <trkpt lat="44.44147" lon="5.96102">
        <ele>823</ele>
        <time>2015-04-22T13:03:38Z</time>
      </trkpt>
      <trkpt lat="44.44158" lon="5.96101">
        <ele>823.06</ele>
        <time>2015-04-22T13:03:40Z</time>
      </trkpt>
      <trkpt lat="44.44174" lon="5.96103">
        <ele>823.24</ele>
        <time>2015-04-22T13:03:43Z</time>
      </trkpt>
      <trkpt lat="44.44195" lon="5.96055">
        <ele>822.58</ele>
        <time>2015-04-22T13:03:50Z</time>
      </trkpt>
      <trkpt lat="44.44207" lon="5.95998">
        <ele>820.69</ele>
        <time>2015-04-22T13:03:55Z</time>
      </trkpt>
      <trkpt lat="44.44226" lon="5.95939">
        <ele>819.87</ele>
        <time>2015-04-22T13:04:00Z</time>
      </trkpt>
      <trkpt lat="44.44274" lon="5.95869">
        <ele>816.37</ele>
        <time>2015-04-22T13:04:07Z</time>
      </trkpt>
      <trkpt lat="44.44308" lon="5.95821">
        <ele>811.63</ele>
        <time>2015-04-22T13:04:11Z</time>
      </trkpt>
      <trkpt lat="44.44375" lon="5.95808">
        <ele>809.98</ele>
        <time>2015-04-22T13:04:19Z</time>
      </trkpt>
      <trkpt lat="44.44409" lon="5.95762">
        <ele>807.95</ele>
        <time>2015-04-22T13:04:25Z</time>
      </trkpt>
      <trkpt lat="44.44398" lon="5.95714">
        <ele>805.57</ele>
        <time>2015-04-22T13:04:30Z</time>
      </trkpt>
      <trkpt lat="44.44374" lon="5.95681">
        <ele>805.71</ele>
        <time>2015-04-22T13:04:35Z</time>
      </trkpt>
      <trkpt lat="44.44304" lon="5.95645">
        <ele>806.65</ele>
        <time>2015-04-22T13:04:47Z</time>
      </trkpt>
      <trkpt lat="44.44238" lon="5.95626">
        <ele>807.9</ele>
        <time>2015-04-22T13:05:01Z</time>
      </trkpt>
      <trkpt lat="44.44213" lon="5.95633">
        <ele>808.67</ele>
        <time>2015-04-22T13:05:07Z</time>
      </trkpt>
      <trkpt lat="44.44155" lon="5.95694">
        <ele>810.7</ele>
        <time>2015-04-22T13:05:21Z</time>
      </trkpt>
      <trkpt lat="44.4411" lon="5.95751">
        <ele>812.67</ele>
        <time>2015-04-22T13:05:33Z</time>
      </trkpt>
      <trkpt lat="44.441" lon="5.95773">
        <ele>812.9</ele>
        <time>2015-04-22T13:05:37Z</time>
      </trkpt>
      <trkpt lat="44.44079" lon="5.95784">
        <ele>813.64</ele>
        <time>2015-04-22T13:05:43Z</time>
      </trkpt>
      <trkpt lat="44.44071" lon="5.95781">
        <ele>813.86</ele>
        <time>2015-04-22T13:05:45Z</time>
      </trkpt>
      <trkpt lat="44.44046" lon="5.95738">
        <ele>815.05</ele>
        <time>2015-04-22T13:05:54Z</time>
      </trkpt>
      <trkpt lat="44.44045" lon="5.95731">
        <ele>815.24</ele>
        <time>2015-04-22T13:05:55Z</time>
      </trkpt>
      <trkpt lat="44.44044" lon="5.95672">
        <ele>816.34</ele>
        <time>2015-04-22T13:06:04Z</time>
      </trkpt>
      <trkpt lat="44.44026" lon="5.95596">
        <ele>818.09</ele>
        <time>2015-04-22T13:06:16Z</time>
      </trkpt>
      <trkpt lat="44.43994" lon="5.95539">
        <ele>819.14</ele>
        <time>2015-04-22T13:06:27Z</time>
      </trkpt>
      <trkpt lat="44.43978" lon="5.95434">
        <ele>819.83</ele>
        <time>2015-04-22T13:06:41Z</time>
      </trkpt>
      <trkpt lat="44.43993" lon="5.95315">
        <ele>821</ele>
        <time>2015-04-22T13:06:56Z</time>
      </trkpt>
      <trkpt lat="44.43998" lon="5.95242">
        <ele>821.38</ele>
        <time>2015-04-22T13:07:05Z</time>
      </trkpt>
      <trkpt lat="44.43985" lon="5.95205">
        <ele>821.91</ele>
        <time>2015-04-22T13:07:10Z</time>
      </trkpt>
      <trkpt lat="44.43933" lon="5.95141">
        <ele>821.23</ele>
        <time>2015-04-22T13:07:22Z</time>
      </trkpt>
      <trkpt lat="44.43914" lon="5.95124">
        <ele>821.41</ele>
        <time>2015-04-22T13:07:27Z</time>
      </trkpt>
      <trkpt lat="44.43906" lon="5.95118">
        <ele>821.18</ele>
        <time>2015-04-22T13:07:29Z</time>
      </trkpt>
      <trkpt lat="44.43854" lon="5.95097">
        <ele>821.7</ele>
        <time>2015-04-22T13:07:39Z</time>
      </trkpt>
      <trkpt lat="44.4377" lon="5.95065">
        <ele>821.47</ele>
        <time>2015-04-22T13:07:54Z</time>
      </trkpt>
      <trkpt lat="44.43739" lon="5.95024">
        <ele>821.9</ele>
        <time>2015-04-22T13:08:02Z</time>
      </trkpt>
      <trkpt lat="44.4372" lon="5.94991">
        <ele>822.52</ele>
        <time>2015-04-22T13:08:08Z</time>
      </trkpt>
      <trkpt lat="44.43711" lon="5.94944">
        <ele>823.31</ele>
        <time>2015-04-22T13:08:15Z</time>
      </trkpt>
      <trkpt lat="44.43709" lon="5.94915">
        <ele>823.82</ele>
        <time>2015-04-22T13:08:19Z</time>
      </trkpt>
      <trkpt lat="44.43697" lon="5.94795">
        <ele>825.66</ele>
        <time>2015-04-22T13:08:35Z</time>
      </trkpt>
      <trkpt lat="44.43681" lon="5.94677">
        <ele>824.76</ele>
        <time>2015-04-22T13:08:50Z</time>
      </trkpt>
      <trkpt lat="44.43635" lon="5.94573">
        <ele>826.29</ele>
        <time>2015-04-22T13:09:07Z</time>
      </trkpt>
      <trkpt lat="44.43604" lon="5.94532">
        <ele>828.29</ele>
        <time>2015-04-22T13:09:16Z</time>
      </trkpt>
      <trkpt lat="44.43585" lon="5.94509">
        <ele>829.19</ele>
        <time>2015-04-22T13:09:22Z</time>
      </trkpt>
      <trkpt lat="44.43574" lon="5.9449">
        <ele>830.08</ele>
        <time>2015-04-22T13:09:26Z</time>
      </trkpt>
      <trkpt lat="44.43566" lon="5.94469">
        <ele>830.36</ele>
        <time>2015-04-22T13:09:30Z</time>
      </trkpt>
      <trkpt lat="44.43566" lon="5.94422">
        <ele>831.74</ele>
        <time>2015-04-22T13:09:37Z</time>
      </trkpt>
      <trkpt lat="44.43593" lon="5.94305">
        <ele>833.67</ele>
        <time>2015-04-22T13:09:55Z</time>
      </trkpt>
      <trkpt lat="44.43601" lon="5.94272">
        <ele>834.32</ele>
        <time>2015-04-22T13:10:00Z</time>
      </trkpt>
      <trkpt lat="44.43611" lon="5.94225">
        <ele>834.9</ele>
        <time>2015-04-22T13:10:07Z</time>
      </trkpt>
      <trkpt lat="44.43611" lon="5.94114">
        <ele>836.83</ele>
        <time>2015-04-22T13:10:23Z</time>
      </trkpt>
      <trkpt lat="44.43612" lon="5.94044">
        <ele>839.97</ele>
        <time>2015-04-22T13:10:36Z</time>
      </trkpt>
      <trkpt lat="44.43609" lon="5.93976">
        <ele>843.12</ele>
        <time>2015-04-22T13:10:49Z</time>
      </trkpt>
      <trkpt lat="44.43593" lon="5.93906">
        <ele>845.88</ele>
        <time>2015-04-22T13:11:02Z</time>
      </trkpt>
      <trkpt lat="44.43579" lon="5.93848">
        <ele>847.75</ele>
        <time>2015-04-22T13:11:13Z</time>
      </trkpt>
      <trkpt lat="44.43563" lon="5.93795">
        <ele>849.63</ele>
        <time>2015-04-22T13:11:23Z</time>
      </trkpt>
      <trkpt lat="44.43546" lon="5.93777">
        <ele>850.43</ele>
        <time>2015-04-22T13:11:28Z</time>
      </trkpt>
      <trkpt lat="44.43487" lon="5.9373">
        <ele>853.12</ele>
        <time>2015-04-22T13:11:44Z</time>
      </trkpt>
      <trkpt lat="44.43424" lon="5.93681">
        <ele>855.69</ele>
        <time>2015-04-22T13:11:59Z</time>
      </trkpt>
      <trkpt lat="44.43417" lon="5.9363">
        <ele>855.44</ele>
        <time>2015-04-22T13:12:08Z</time>
      </trkpt>
      <trkpt lat="44.43429" lon="5.93514">
        <ele>854.85</ele>
        <time>2015-04-22T13:12:21Z</time>
      </trkpt>
      <trkpt lat="44.4343" lon="5.93469">
        <ele>853.92</ele>
        <time>2015-04-22T13:12:25Z</time>
      </trkpt>
      <trkpt lat="44.43472" lon="5.93308">
        <ele>851.02</ele>
        <time>2015-04-22T13:12:38Z</time>
      </trkpt>
      <trkpt lat="44.43488" lon="5.93256">
        <ele>850.6</ele>
        <time>2015-04-22T13:12:42Z</time>
      </trkpt>
      <trkpt lat="44.43506" lon="5.93222">
        <ele>849.61</ele>
        <time>2015-04-22T13:12:45Z</time>
      </trkpt>
      <trkpt lat="44.43509" lon="5.93151">
        <ele>849.44</ele>
        <time>2015-04-22T13:12:51Z</time>
      </trkpt>
      <trkpt lat="44.43516" lon="5.93099">
        <ele>850.78</ele>
        <time>2015-04-22T13:12:58Z</time>
      </trkpt>
      <trkpt lat="44.43523" lon="5.93093">
        <ele>851.25</ele>
        <time>2015-04-22T13:13:00Z</time>
      </trkpt>
      <trkpt lat="44.4355" lon="5.93067">
        <ele>852.86</ele>
        <time>2015-04-22T13:13:07Z</time>
      </trkpt>
      <trkpt lat="44.43585" lon="5.93008">
        <ele>854.52</ele>
        <time>2015-04-22T13:13:21Z</time>
      </trkpt>
      <trkpt lat="44.43571" lon="5.92962">
        <ele>853.5</ele>
        <time>2015-04-22T13:13:30Z</time>
      </trkpt>
      <trkpt lat="44.43561" lon="5.92922">
        <ele>852.42</ele>
        <time>2015-04-22T13:13:34Z</time>
      </trkpt>
      <trkpt lat="44.43543" lon="5.92876">
        <ele>849.8</ele>
        <time>2015-04-22T13:13:38Z</time>
      </trkpt>
      <trkpt lat="44.43494" lon="5.92813">
        <ele>844.9</ele>
        <time>2015-04-22T13:13:44Z</time>
      </trkpt>
      <trkpt lat="44.43486" lon="5.92805">
        <ele>843.64</ele>
        <time>2015-04-22T13:13:45Z</time>
      </trkpt>
      <trkpt lat="44.43468" lon="5.92768">
        <ele>838.98</ele>
        <time>2015-04-22T13:13:49Z</time>
      </trkpt>
      <trkpt lat="44.43494" lon="5.92726">
        <ele>835.65</ele>
        <time>2015-04-22T13:13:54Z</time>
      </trkpt>
      <trkpt lat="44.43514" lon="5.92724">
        <ele>834.71</ele>
        <time>2015-04-22T13:13:56Z</time>
      </trkpt>
      <trkpt lat="44.43536" lon="5.9272">
        <ele>833.4</ele>
        <time>2015-04-22T13:13:58Z</time>
      </trkpt>
      <trkpt lat="44.43575" lon="5.92694">
        <ele>828.65</ele>
        <time>2015-04-22T13:14:02Z</time>
      </trkpt>
      <trkpt lat="44.43611" lon="5.92681">
        <ele>825.59</ele>
        <time>2015-04-22T13:14:06Z</time>
      </trkpt>
      <trkpt lat="44.43619" lon="5.92685">
        <ele>825.55</ele>
        <time>2015-04-22T13:14:07Z</time>
      </trkpt>
      <trkpt lat="44.43656" lon="5.92666">
        <ele>825.62</ele>
        <time>2015-04-22T13:14:13Z</time>
      </trkpt>
      <trkpt lat="44.43654" lon="5.92611">
        <ele>823.33</ele>
        <time>2015-04-22T13:14:18Z</time>
      </trkpt>
      <trkpt lat="44.43623" lon="5.92591">
        <ele>822.33</ele>
        <time>2015-04-22T13:14:22Z</time>
      </trkpt>
      <trkpt lat="44.43613" lon="5.92562">
        <ele>818.62</ele>
        <time>2015-04-22T13:14:25Z</time>
      </trkpt>
      <trkpt lat="44.43611" lon="5.92497">
        <ele>816.76</ele>
        <time>2015-04-22T13:14:30Z</time>
      </trkpt>
      <trkpt lat="44.43624" lon="5.92437">
        <ele>816.62</ele>
        <time>2015-04-22T13:14:36Z</time>
      </trkpt>
      <trkpt lat="44.43645" lon="5.92412">
        <ele>815.7</ele>
        <time>2015-04-22T13:14:39Z</time>
      </trkpt>
      <trkpt lat="44.43707" lon="5.92389">
        <ele>814.49</ele>
        <time>2015-04-22T13:14:46Z</time>
      </trkpt>
      <trkpt lat="44.43756" lon="5.92354">
        <ele>810.93</ele>
        <time>2015-04-22T13:14:52Z</time>
      </trkpt>
      <trkpt lat="44.4379" lon="5.92333">
        <ele>810.35</ele>
        <time>2015-04-22T13:14:58Z</time>
      </trkpt>
      <trkpt lat="44.43819" lon="5.92302">
        <ele>808.78</ele>
        <time>2015-04-22T13:15:03Z</time>
      </trkpt>
      <trkpt lat="44.43842" lon="5.92285">
        <ele>808.24</ele>
        <time>2015-04-22T13:15:06Z</time>
      </trkpt>
      <trkpt lat="44.43862" lon="5.92258">
        <ele>806.83</ele>
        <time>2015-04-22T13:15:09Z</time>
      </trkpt>
      <trkpt lat="44.4389" lon="5.92223">
        <ele>806.41</ele>
        <time>2015-04-22T13:15:13Z</time>
      </trkpt>
      <trkpt lat="44.43887" lon="5.92187">
        <ele>804.89</ele>
        <time>2015-04-22T13:15:19Z</time>
      </trkpt>
      <trkpt lat="44.43883" lon="5.92185">
        <ele>804.87</ele>
        <time>2015-04-22T13:15:20Z</time>
      </trkpt>
      <trkpt lat="44.43838" lon="5.92178">
        <ele>806.78</ele>
        <time>2015-04-22T13:15:35Z</time>
      </trkpt>
      <trkpt lat="44.43809" lon="5.92179">
        <ele>809.57</ele>
        <time>2015-04-22T13:15:45Z</time>
      </trkpt>
      <trkpt lat="44.43806" lon="5.92144">
        <ele>811.23</ele>
        <time>2015-04-22T13:15:56Z</time>
      </trkpt>
      <trkpt lat="44.4381" lon="5.92096">
        <ele>814.51</ele>
        <time>2015-04-22T13:16:11Z</time>
      </trkpt>
      <trkpt lat="44.43821" lon="5.92067">
        <ele>817.59</ele>
        <time>2015-04-22T13:16:22Z</time>
      </trkpt>
      <trkpt lat="44.43835" lon="5.92036">
        <ele>820.11</ele>
        <time>2015-04-22T13:16:33Z</time>
      </trkpt>
      <trkpt lat="44.43806" lon="5.92031">
        <ele>822.82</ele>
        <time>2015-04-22T13:16:43Z</time>
      </trkpt>
      <trkpt lat="44.43798" lon="5.92035">
        <ele>823.1</ele>
        <time>2015-04-22T13:16:46Z</time>
      </trkpt>
      <trkpt lat="44.43776" lon="5.92028">
        <ele>825</ele>
        <time>2015-04-22T13:16:56Z</time>
      </trkpt>
      <trkpt lat="44.43763" lon="5.91997">
        <ele>828.07</ele>
        <time>2015-04-22T13:17:09Z</time>
      </trkpt>
      <trkpt lat="44.43737" lon="5.91996">
        <ele>831.25</ele>
        <time>2015-04-22T13:17:21Z</time>
      </trkpt>
      <trkpt lat="44.43704" lon="5.92021">
        <ele>833.77</ele>
        <time>2015-04-22T13:17:35Z</time>
      </trkpt>
      <trkpt lat="44.43679" lon="5.92028">
        <ele>837.14</ele>
        <time>2015-04-22T13:17:46Z</time>
      </trkpt>
      <trkpt lat="44.43641" lon="5.92023">
        <ele>840.34</ele>
        <time>2015-04-22T13:18:00Z</time>
      </trkpt>
      <trkpt lat="44.43608" lon="5.92">
        <ele>843.14</ele>
        <time>2015-04-22T13:18:15Z</time>
      </trkpt>
      <trkpt lat="44.43587" lon="5.91967">
        <ele>845.23</ele>
        <time>2015-04-22T13:18:29Z</time>
      </trkpt>
      <trkpt lat="44.43569" lon="5.91936">
        <ele>848.41</ele>
        <time>2015-04-22T13:18:42Z</time>
      </trkpt>
      <trkpt lat="44.43559" lon="5.91913">
        <ele>851</ele>
        <time>2015-04-22T13:18:51Z</time>
      </trkpt>
      <trkpt lat="44.43527" lon="5.91915">
        <ele>854.05</ele>
        <time>2015-04-22T13:19:04Z</time>
      </trkpt>
      <trkpt lat="44.43495" lon="5.91941">
        <ele>857.11</ele>
        <time>2015-04-22T13:19:17Z</time>
      </trkpt>
      <trkpt lat="44.43459" lon="5.91935">
        <ele>859.24</ele>
        <time>2015-04-22T13:19:30Z</time>
      </trkpt>
      <trkpt lat="44.43455" lon="5.9191">
        <ele>861.06</ele>
        <time>2015-04-22T13:19:41Z</time>
      </trkpt>
      <trkpt lat="44.43456" lon="5.91908">
        <ele>861.25</ele>
        <time>2015-04-22T13:19:42Z</time>
      </trkpt>
      <trkpt lat="44.43465" lon="5.91884">
        <ele>863.49</ele>
        <time>2015-04-22T13:19:53Z</time>
      </trkpt>
      <trkpt lat="44.43491" lon="5.91871">
        <ele>866.77</ele>
        <time>2015-04-22T13:20:06Z</time>
      </trkpt>
      <trkpt lat="44.4352" lon="5.91867">
        <ele>868.54</ele>
        <time>2015-04-22T13:20:16Z</time>
      </trkpt>
      <trkpt lat="44.43522" lon="5.91848">
        <ele>869.04</ele>
        <time>2015-04-22T13:20:20Z</time>
      </trkpt>
      <trkpt lat="44.43524" lon="5.91799">
        <ele>870.59</ele>
        <time>2015-04-22T13:20:31Z</time>
      </trkpt>
      <trkpt lat="44.43544" lon="5.91801">
        <ele>872.12</ele>
        <time>2015-04-22T13:20:40Z</time>
      </trkpt>
      <trkpt lat="44.43578" lon="5.91817">
        <ele>875.27</ele>
        <time>2015-04-22T13:20:52Z</time>
      </trkpt>
      <trkpt lat="44.43611" lon="5.9181">
        <ele>876.39</ele>
        <time>2015-04-22T13:21:05Z</time>
      </trkpt>
      <trkpt lat="44.43637" lon="5.91803">
        <ele>878.38</ele>
        <time>2015-04-22T13:21:15Z</time>
      </trkpt>
      <trkpt lat="44.43659" lon="5.91754">
        <ele>879.73</ele>
        <time>2015-04-22T13:21:27Z</time>
      </trkpt>
      <trkpt lat="44.43688" lon="5.91718">
        <ele>881.04</ele>
        <time>2015-04-22T13:21:40Z</time>
      </trkpt>
      <trkpt lat="44.43706" lon="5.91739">
        <ele>882.03</ele>
        <time>2015-04-22T13:21:47Z</time>
      </trkpt>
      <trkpt lat="44.43709" lon="5.91753">
        <ele>882.06</ele>
        <time>2015-04-22T13:21:50Z</time>
      </trkpt>
      <trkpt lat="44.43735" lon="5.9176">
        <ele>882.38</ele>
        <time>2015-04-22T13:21:57Z</time>
      </trkpt>
      <trkpt lat="44.43792" lon="5.91729">
        <ele>884.73</ele>
        <time>2015-04-22T13:22:13Z</time>
      </trkpt>
      <trkpt lat="44.43834" lon="5.91692">
        <ele>887.77</ele>
        <time>2015-04-22T13:22:27Z</time>
      </trkpt>
      <trkpt lat="44.43871" lon="5.91659">
        <ele>890.97</ele>
        <time>2015-04-22T13:22:41Z</time>
      </trkpt>
      <trkpt lat="44.43903" lon="5.91628">
        <ele>893.96</ele>
        <time>2015-04-22T13:22:54Z</time>
      </trkpt>
      <trkpt lat="44.43932" lon="5.91588">
        <ele>896.09</ele>
        <time>2015-04-22T13:23:06Z</time>
      </trkpt>
      <trkpt lat="44.43962" lon="5.91523">
        <ele>899.08</ele>
        <time>2015-04-22T13:23:23Z</time>
      </trkpt>
      <trkpt lat="44.43989" lon="5.91463">
        <ele>901.48</ele>
        <time>2015-04-22T13:23:37Z</time>
      </trkpt>
      <trkpt lat="44.44026" lon="5.91423">
        <ele>904.08</ele>
        <time>2015-04-22T13:23:51Z</time>
      </trkpt>
      <trkpt lat="44.44065" lon="5.91366">
        <ele>907.14</ele>
        <time>2015-04-22T13:24:07Z</time>
      </trkpt>
      <trkpt lat="44.44095" lon="5.91341">
        <ele>908.32</ele>
        <time>2015-04-22T13:24:17Z</time>
      </trkpt>
      <trkpt lat="44.44144" lon="5.91345">
        <ele>910.66</ele>
        <time>2015-04-22T13:24:31Z</time>
      </trkpt>
      <trkpt lat="44.442" lon="5.91354">
        <ele>913.01</ele>
        <time>2015-04-22T13:24:46Z</time>
      </trkpt>
      <trkpt lat="44.44255" lon="5.9137">
        <ele>916.11</ele>
        <time>2015-04-22T13:25:02Z</time>
      </trkpt>
      <trkpt lat="44.44296" lon="5.91384">
        <ele>919.27</ele>
        <time>2015-04-22T13:25:16Z</time>
      </trkpt>
      <trkpt lat="44.44337" lon="5.91398">
        <ele>921.8</ele>
        <time>2015-04-22T13:25:29Z</time>
      </trkpt>
      <trkpt lat="44.44385" lon="5.91413">
        <ele>924.75</ele>
        <time>2015-04-22T13:25:43Z</time>
      </trkpt>
      <trkpt lat="44.44436" lon="5.91425">
        <ele>927.81</ele>
        <time>2015-04-22T13:25:57Z</time>
      </trkpt>
      <trkpt lat="44.44484" lon="5.91409">
        <ele>930.07</ele>
        <time>2015-04-22T13:26:11Z</time>
      </trkpt>
      <trkpt lat="44.44533" lon="5.91392">
        <ele>933.26</ele>
        <time>2015-04-22T13:26:27Z</time>
      </trkpt>
      <trkpt lat="44.4458" lon="5.91375">
        <ele>936.3</ele>
        <time>2015-04-22T13:26:42Z</time>
      </trkpt>
      <trkpt lat="44.4462" lon="5.9136">
        <ele>939.19</ele>
        <time>2015-04-22T13:26:56Z</time>
      </trkpt>
      <trkpt lat="44.44664" lon="5.91342">
        <ele>942.14</ele>
        <time>2015-04-22T13:27:10Z</time>
      </trkpt>
      <trkpt lat="44.44703" lon="5.91306">
        <ele>945.22</ele>
        <time>2015-04-22T13:27:25Z</time>
      </trkpt>
      <trkpt lat="44.44723" lon="5.91259">
        <ele>947.93</ele>
        <time>2015-04-22T13:27:39Z</time>
      </trkpt>
      <trkpt lat="44.44739" lon="5.91211">
        <ele>950.15</ele>
        <time>2015-04-22T13:27:52Z</time>
      </trkpt>
      <trkpt lat="44.44758" lon="5.9116">
        <ele>952.93</ele>
        <time>2015-04-22T13:28:07Z</time>
      </trkpt>
      <trkpt lat="44.44775" lon="5.91114">
        <ele>956.1</ele>
        <time>2015-04-22T13:28:21Z</time>
      </trkpt>
      <trkpt lat="44.44793" lon="5.91065">
        <ele>959.24</ele>
        <time>2015-04-22T13:28:36Z</time>
      </trkpt>
      <trkpt lat="44.44807" lon="5.91022">
        <ele>962</ele>
        <time>2015-04-22T13:28:50Z</time>
      </trkpt>
      <trkpt lat="44.44828" lon="5.9098">
        <ele>965.15</ele>
        <time>2015-04-22T13:29:05Z</time>
      </trkpt>
      <trkpt lat="44.44843" lon="5.90946">
        <ele>967.33</ele>
        <time>2015-04-22T13:29:16Z</time>
      </trkpt>
      <trkpt lat="44.44841" lon="5.9089">
        <ele>969.78</ele>
        <time>2015-04-22T13:29:29Z</time>
      </trkpt>
      <trkpt lat="44.44837" lon="5.90836">
        <ele>972.36</ele>
        <time>2015-04-22T13:29:42Z</time>
      </trkpt>
      <trkpt lat="44.44806" lon="5.90792">
        <ele>974.95</ele>
        <time>2015-04-22T13:29:56Z</time>
      </trkpt>
      <trkpt lat="44.44792" lon="5.90747">
        <ele>975.15</ele>
        <time>2015-04-22T13:30:06Z</time>
      </trkpt>
      <trkpt lat="44.44816" lon="5.90719">
        <ele>975.05</ele>
        <time>2015-04-22T13:30:14Z</time>
      </trkpt>
      <trkpt lat="44.44856" lon="5.90731">
        <ele>976</ele>
        <time>2015-04-22T13:30:26Z</time>
      </trkpt>
      <trkpt lat="44.44888" lon="5.9074">
        <ele>979.08</ele>
        <time>2015-04-22T13:30:38Z</time>
      </trkpt>
      <trkpt lat="44.44919" lon="5.90705">
        <ele>979.69</ele>
        <time>2015-04-22T13:30:49Z</time>
      </trkpt>
      <trkpt lat="44.44956" lon="5.90639">
        <ele>979.24</ele>
        <time>2015-04-22T13:31:02Z</time>
      </trkpt>
      <trkpt lat="44.44991" lon="5.90587">
        <ele>980.7</ele>
        <time>2015-04-22T13:31:14Z</time>
      </trkpt>
      <trkpt lat="44.45015" lon="5.90551">
        <ele>982.42</ele>
        <time>2015-04-22T13:31:26Z</time>
      </trkpt>
      <trkpt lat="44.45045" lon="5.90506">
        <ele>985.14</ele>
        <time>2015-04-22T13:31:41Z</time>
      </trkpt>
      <trkpt lat="44.45077" lon="5.90491">
        <ele>987.2</ele>
        <time>2015-04-22T13:31:53Z</time>
      </trkpt>
      <trkpt lat="44.45112" lon="5.90473">
        <ele>990.23</ele>
        <time>2015-04-22T13:32:07Z</time>
      </trkpt>
      <trkpt lat="44.45139" lon="5.90443">
        <ele>992.84</ele>
        <time>2015-04-22T13:32:20Z</time>
      </trkpt>
      <trkpt lat="44.4516" lon="5.90395">
        <ele>995.28</ele>
        <time>2015-04-22T13:32:34Z</time>
      </trkpt>
      <trkpt lat="44.45184" lon="5.9034">
        <ele>997.89</ele>
        <time>2015-04-22T13:32:48Z</time>
      </trkpt>
      <trkpt lat="44.45216" lon="5.90309">
        <ele>999.6</ele>
        <time>2015-04-22T13:33:01Z</time>
      </trkpt>
      <trkpt lat="44.45255" lon="5.90312">
        <ele>1001.28</ele>
        <time>2015-04-22T13:33:12Z</time>
      </trkpt>
      <trkpt lat="44.45304" lon="5.90336">
        <ele>1002.94</ele>
        <time>2015-04-22T13:33:27Z</time>
      </trkpt>
      <trkpt lat="44.45349" lon="5.90334">
        <ele>1004.84</ele>
        <time>2015-04-22T13:33:41Z</time>
      </trkpt>
      <trkpt lat="44.45387" lon="5.90318">
        <ele>1007.99</ele>
        <time>2015-04-22T13:33:55Z</time>
      </trkpt>
      <trkpt lat="44.4542" lon="5.9029">
        <ele>1011.06</ele>
        <time>2015-04-22T13:34:09Z</time>
      </trkpt>
      <trkpt lat="44.45438" lon="5.90251">
        <ele>1013.69</ele>
        <time>2015-04-22T13:34:22Z</time>
      </trkpt>
      <trkpt lat="44.45442" lon="5.90206">
        <ele>1016.06</ele>
        <time>2015-04-22T13:34:34Z</time>
      </trkpt>
      <trkpt lat="44.45465" lon="5.90158">
        <ele>1019.27</ele>
        <time>2015-04-22T13:34:49Z</time>
      </trkpt>
      <trkpt lat="44.45479" lon="5.90113">
        <ele>1022.3</ele>
        <time>2015-04-22T13:35:02Z</time>
      </trkpt>
      <trkpt lat="44.45496" lon="5.90054">
        <ele>1025.37</ele>
        <time>2015-04-22T13:35:17Z</time>
      </trkpt>
      <trkpt lat="44.45507" lon="5.90016">
        <ele>1027.53</ele>
        <time>2015-04-22T13:35:28Z</time>
      </trkpt>
      <trkpt lat="44.45519" lon="5.89962">
        <ele>1029.95</ele>
        <time>2015-04-22T13:35:41Z</time>
      </trkpt>
      <trkpt lat="44.45512" lon="5.899">
        <ele>1032.11</ele>
        <time>2015-04-22T13:35:54Z</time>
      </trkpt>
      <trkpt lat="44.45501" lon="5.89834">
        <ele>1034.48</ele>
        <time>2015-04-22T13:36:08Z</time>
      </trkpt>
      <trkpt lat="44.45529" lon="5.8981">
        <ele>1035.55</ele>
        <time>2015-04-22T13:36:18Z</time>
      </trkpt>
      <trkpt lat="44.45568" lon="5.89788">
        <ele>1036.86</ele>
        <time>2015-04-22T13:36:31Z</time>
      </trkpt>
      <trkpt lat="44.45581" lon="5.8977">
        <ele>1037.93</ele>
        <time>2015-04-22T13:36:37Z</time>
      </trkpt>
      <trkpt lat="44.45591" lon="5.89776">
        <ele>1038.81</ele>
        <time>2015-04-22T13:36:41Z</time>
      </trkpt>
      <trkpt lat="44.45619" lon="5.89782">
        <ele>1041.93</ele>
        <time>2015-04-22T13:36:53Z</time>
      </trkpt>
      <trkpt lat="44.45648" lon="5.8975">
        <ele>1044.6</ele>
        <time>2015-04-22T13:37:06Z</time>
      </trkpt>
      <trkpt lat="44.45654" lon="5.89737">
        <ele>1045.66</ele>
        <time>2015-04-22T13:37:10Z</time>
      </trkpt>
      <trkpt lat="44.45687" lon="5.89742">
        <ele>1047.51</ele>
        <time>2015-04-22T13:37:20Z</time>
      </trkpt>
      <trkpt lat="44.45718" lon="5.89708">
        <ele>1050.31</ele>
        <time>2015-04-22T13:37:34Z</time>
      </trkpt>
      <trkpt lat="44.45744" lon="5.89683">
        <ele>1053.02</ele>
        <time>2015-04-22T13:37:47Z</time>
      </trkpt>
      <trkpt lat="44.45755" lon="5.89668">
        <ele>1054.28</ele>
        <time>2015-04-22T13:37:53Z</time>
      </trkpt>
      <trkpt lat="44.45766" lon="5.89667">
        <ele>1055.25</ele>
        <time>2015-04-22T13:37:57Z</time>
      </trkpt>
      <trkpt lat="44.4581" lon="5.89665">
        <ele>1058.22</ele>
        <time>2015-04-22T13:38:12Z</time>
      </trkpt>
      <trkpt lat="44.45836" lon="5.89667">
        <ele>1060.23</ele>
        <time>2015-04-22T13:38:23Z</time>
      </trkpt>
      <trkpt lat="44.45867" lon="5.89663">
        <ele>1063.31</ele>
        <time>2015-04-22T13:38:35Z</time>
      </trkpt>
      <trkpt lat="44.45898" lon="5.89623">
        <ele>1065.35</ele>
        <time>2015-04-22T13:38:48Z</time>
      </trkpt>
      <trkpt lat="44.45908" lon="5.89573">
        <ele>1067.8</ele>
        <time>2015-04-22T13:39:02Z</time>
      </trkpt>
      <trkpt lat="44.45915" lon="5.89513">
        <ele>1070.73</ele>
        <time>2015-04-22T13:39:17Z</time>
      </trkpt>
      <trkpt lat="44.45927" lon="5.89447">
        <ele>1073.82</ele>
        <time>2015-04-22T13:39:34Z</time>
      </trkpt>
      <trkpt lat="44.4594" lon="5.8939">
        <ele>1076.57</ele>
        <time>2015-04-22T13:39:50Z</time>
      </trkpt>
      <trkpt lat="44.45947" lon="5.89342">
        <ele>1078.95</ele>
        <time>2015-04-22T13:40:03Z</time>
      </trkpt>
      <trkpt lat="44.45959" lon="5.8929">
        <ele>1081.82</ele>
        <time>2015-04-22T13:40:17Z</time>
      </trkpt>
      <trkpt lat="44.45973" lon="5.89241">
        <ele>1084.91</ele>
        <time>2015-04-22T13:40:30Z</time>
      </trkpt>
      <trkpt lat="44.45989" lon="5.89189">
        <ele>1087.72</ele>
        <time>2015-04-22T13:40:44Z</time>
      </trkpt>
      <trkpt lat="44.46003" lon="5.89133">
        <ele>1090.1</ele>
        <time>2015-04-22T13:40:58Z</time>
      </trkpt>
      <trkpt lat="44.46006" lon="5.89078">
        <ele>1091.97</ele>
        <time>2015-04-22T13:41:11Z</time>
      </trkpt>
      <trkpt lat="44.46005" lon="5.89025">
        <ele>1092.69</ele>
        <time>2015-04-22T13:41:25Z</time>
      </trkpt>
      <trkpt lat="44.46031" lon="5.89011">
        <ele>1094.44</ele>
        <time>2015-04-22T13:41:36Z</time>
      </trkpt>
      <trkpt lat="44.46066" lon="5.89031">
        <ele>1096.66</ele>
        <time>2015-04-22T13:41:48Z</time>
      </trkpt>
      <trkpt lat="44.46108" lon="5.89022">
        <ele>1099.42</ele>
        <time>2015-04-22T13:42:02Z</time>
      </trkpt>
      <trkpt lat="44.46141" lon="5.89006">
        <ele>1101.95</ele>
        <time>2015-04-22T13:42:15Z</time>
      </trkpt>
      <trkpt lat="44.46175" lon="5.8898">
        <ele>1104.73</ele>
        <time>2015-04-22T13:42:29Z</time>
      </trkpt>
      <trkpt lat="44.46202" lon="5.88991">
        <ele>1106.76</ele>
        <time>2015-04-22T13:42:39Z</time>
      </trkpt>
      <trkpt lat="44.46226" lon="5.89021">
        <ele>1109.79</ele>
        <time>2015-04-22T13:42:51Z</time>
      </trkpt>
      <trkpt lat="44.4625" lon="5.88992">
        <ele>1112.04</ele>
        <time>2015-04-22T13:43:03Z</time>
      </trkpt>
      <trkpt lat="44.46278" lon="5.88968">
        <ele>1114.36</ele>
        <time>2015-04-22T13:43:16Z</time>
      </trkpt>
      <trkpt lat="44.46291" lon="5.88966">
        <ele>1115.28</ele>
        <time>2015-04-22T13:43:21Z</time>
      </trkpt>
      <trkpt lat="44.46295" lon="5.88979">
        <ele>1116.55</ele>
        <time>2015-04-22T13:43:25Z</time>
      </trkpt>
      <trkpt lat="44.46312" lon="5.89002">
        <ele>1118.8</ele>
        <time>2015-04-22T13:43:36Z</time>
      </trkpt>
      <trkpt lat="44.4635" lon="5.89004">
        <ele>1121.2</ele>
        <time>2015-04-22T13:43:49Z</time>
      </trkpt>
      <trkpt lat="44.46391" lon="5.89">
        <ele>1123.73</ele>
        <time>2015-04-22T13:44:01Z</time>
      </trkpt>
      <trkpt lat="44.46408" lon="5.88963">
        <ele>1125.67</ele>
        <time>2015-04-22T13:44:12Z</time>
      </trkpt>
      <trkpt lat="44.46399" lon="5.88914">
        <ele>1127.58</ele>
        <time>2015-04-22T13:44:24Z</time>
      </trkpt>
      <trkpt lat="44.4639" lon="5.88887">
        <ele>1128.52</ele>
        <time>2015-04-22T13:44:31Z</time>
      </trkpt>
      <trkpt lat="44.46401" lon="5.88878">
        <ele>1129.92</ele>
        <time>2015-04-22T13:44:37Z</time>
      </trkpt>
      <trkpt lat="44.46433" lon="5.88864">
        <ele>1131.91</ele>
        <time>2015-04-22T13:44:50Z</time>
      </trkpt>
      <trkpt lat="44.46449" lon="5.88823">
        <ele>1133.61</ele>
        <time>2015-04-22T13:45:01Z</time>
      </trkpt>
      <trkpt lat="44.4645" lon="5.88764">
        <ele>1136</ele>
        <time>2015-04-22T13:45:15Z</time>
      </trkpt>
      <trkpt lat="44.46445" lon="5.8872">
        <ele>1137.96</ele>
        <time>2015-04-22T13:45:27Z</time>
      </trkpt>
      <trkpt lat="44.46461" lon="5.88668">
        <ele>1140.12</ele>
        <time>2015-04-22T13:45:40Z</time>
      </trkpt>
      <trkpt lat="44.46469" lon="5.88614">
        <ele>1141.72</ele>
        <time>2015-04-22T13:45:51Z</time>
      </trkpt>
      <trkpt lat="44.46488" lon="5.88588">
        <ele>1143.96</ele>
        <time>2015-04-22T13:46:01Z</time>
      </trkpt>
      <trkpt lat="44.46523" lon="5.8858">
        <ele>1146.36</ele>
        <time>2015-04-22T13:46:13Z</time>
      </trkpt>
      <trkpt lat="44.46566" lon="5.88575">
        <ele>1149.04</ele>
        <time>2015-04-22T13:46:26Z</time>
      </trkpt>
      <trkpt lat="44.46571" lon="5.88531">
        <ele>1150.96</ele>
        <time>2015-04-22T13:46:37Z</time>
      </trkpt>
      <trkpt lat="44.4656" lon="5.88497">
        <ele>1153.16</ele>
        <time>2015-04-22T13:46:47Z</time>
      </trkpt>
      <trkpt lat="44.46541" lon="5.88447">
        <ele>1155</ele>
        <time>2015-04-22T13:47:00Z</time>
      </trkpt>
      <trkpt lat="44.46535" lon="5.88424">
        <ele>1155.94</ele>
        <time>2015-04-22T13:47:05Z</time>
      </trkpt>
      <trkpt lat="44.46549" lon="5.88414">
        <ele>1157.18</ele>
        <time>2015-04-22T13:47:12Z</time>
      </trkpt>
      <trkpt lat="44.4658" lon="5.88395">
        <ele>1159.34</ele>
        <time>2015-04-22T13:47:25Z</time>
      </trkpt>
      <trkpt lat="44.46591" lon="5.88341">
        <ele>1161.82</ele>
        <time>2015-04-22T13:47:38Z</time>
      </trkpt>
      <trkpt lat="44.46607" lon="5.88287">
        <ele>1164</ele>
        <time>2015-04-22T13:47:52Z</time>
      </trkpt>
      <trkpt lat="44.46608" lon="5.88284">
        <ele>1164.14</ele>
        <time>2015-04-22T13:47:53Z</time>
      </trkpt>
      <trkpt lat="44.46618" lon="5.88277">
        <ele>1165.1</ele>
        <time>2015-04-22T13:47:57Z</time>
      </trkpt>
      <trkpt lat="44.46659" lon="5.88279">
        <ele>1167.63</ele>
        <time>2015-04-22T13:48:10Z</time>
      </trkpt>
      <trkpt lat="44.4669" lon="5.88329">
        <ele>1169.28</ele>
        <time>2015-04-22T13:48:25Z</time>
      </trkpt>
      <trkpt lat="44.46719" lon="5.88369">
        <ele>1171.87</ele>
        <time>2015-04-22T13:48:38Z</time>
      </trkpt>
      <trkpt lat="44.46754" lon="5.88388">
        <ele>1173.66</ele>
        <time>2015-04-22T13:48:50Z</time>
      </trkpt>
      <trkpt lat="44.46776" lon="5.88409">
        <ele>1174.3</ele>
        <time>2015-04-22T13:48:57Z</time>
      </trkpt>
      <trkpt lat="44.46787" lon="5.88425">
        <ele>1174.6</ele>
        <time>2015-04-22T13:49:01Z</time>
      </trkpt>
      <trkpt lat="44.46799" lon="5.88445">
        <ele>1175.01</ele>
        <time>2015-04-22T13:49:05Z</time>
      </trkpt>
      <trkpt lat="44.46806" lon="5.88471">
        <ele>1174.9</ele>
        <time>2015-04-22T13:49:09Z</time>
      </trkpt>
      <trkpt lat="44.46811" lon="5.88517">
        <ele>1175.12</ele>
        <time>2015-04-22T13:49:15Z</time>
      </trkpt>
      <trkpt lat="44.46808" lon="5.88539">
        <ele>1175.25</ele>
        <time>2015-04-22T13:49:18Z</time>
      </trkpt>
      <trkpt lat="44.46806" lon="5.88559">
        <ele>1175.71</ele>
        <time>2015-04-22T13:49:21Z</time>
      </trkpt>
      <trkpt lat="44.46819" lon="5.88583">
        <ele>1177.03</ele>
        <time>2015-04-22T13:49:27Z</time>
      </trkpt>
      <trkpt lat="44.46833" lon="5.88573">
        <ele>1176.7</ele>
        <time>2015-04-22T13:49:31Z</time>
      </trkpt>
      <trkpt lat="44.46862" lon="5.88571">
        <ele>1177.1</ele>
        <time>2015-04-22T13:49:38Z</time>
      </trkpt>
      <trkpt lat="44.46877" lon="5.88564">
        <ele>1177.37</ele>
        <time>2015-04-22T13:49:41Z</time>
      </trkpt>
      <trkpt lat="44.46899" lon="5.88576">
        <ele>1178.43</ele>
        <time>2015-04-22T13:49:46Z</time>
      </trkpt>
      <trkpt lat="44.46931" lon="5.88611">
        <ele>1178.52</ele>
        <time>2015-04-22T13:49:55Z</time>
      </trkpt>
      <trkpt lat="44.46939" lon="5.88619">
        <ele>1178.44</ele>
        <time>2015-04-22T13:49:57Z</time>
      </trkpt>
      <trkpt lat="44.46963" lon="5.88631">
        <ele>1178.46</ele>
        <time>2015-04-22T13:50:02Z</time>
      </trkpt>
      <trkpt lat="44.46973" lon="5.88633">
        <ele>1178.46</ele>
        <time>2015-04-22T13:50:04Z</time>
      </trkpt>
      <trkpt lat="44.46987" lon="5.88634">
        <ele>1179.01</ele>
        <time>2015-04-22T13:50:07Z</time>
      </trkpt>
      <trkpt lat="44.47003" lon="5.88626">
        <ele>1179.33</ele>
        <time>2015-04-22T13:50:11Z</time>
      </trkpt>
      <trkpt lat="44.47043" lon="5.88579">
        <ele>1180.4</ele>
        <time>2015-04-22T13:50:24Z</time>
      </trkpt>
      <trkpt lat="44.47067" lon="5.88595">
        <ele>1181.05</ele>
        <time>2015-04-22T13:50:31Z</time>
      </trkpt>
      <trkpt lat="44.47094" lon="5.88611">
        <ele>1180.63</ele>
        <time>2015-04-22T13:50:37Z</time>
      </trkpt>
      <trkpt lat="44.47111" lon="5.88636">
        <ele>1181.33</ele>
        <time>2015-04-22T13:50:44Z</time>
      </trkpt>
      <trkpt lat="44.4711" lon="5.88642">
        <ele>1181.6</ele>
        <time>2015-04-22T13:50:45Z</time>
      </trkpt>
      <trkpt lat="44.47127" lon="5.88676">
        <ele>1182.22</ele>
        <time>2015-04-22T13:50:53Z</time>
      </trkpt>
      <trkpt lat="44.4714" lon="5.88668">
        <ele>1182.64</ele>
        <time>2015-04-22T13:50:56Z</time>
      </trkpt>
      <trkpt lat="44.47172" lon="5.88667">
        <ele>1183</ele>
        <time>2015-04-22T13:51:03Z</time>
      </trkpt>
      <trkpt lat="44.47181" lon="5.88675">
        <ele>1183.07</ele>
        <time>2015-04-22T13:51:05Z</time>
      </trkpt>
      <trkpt lat="44.47215" lon="5.88671">
        <ele>1184.17</ele>
        <time>2015-04-22T13:51:13Z</time>
      </trkpt>
      <trkpt lat="44.47227" lon="5.88649">
        <ele>1184.48</ele>
        <time>2015-04-22T13:51:17Z</time>
      </trkpt>
      <trkpt lat="44.47254" lon="5.88632">
        <ele>1185.38</ele>
        <time>2015-04-22T13:51:23Z</time>
      </trkpt>
      <trkpt lat="44.47271" lon="5.88654">
        <ele>1186.14</ele>
        <time>2015-04-22T13:51:30Z</time>
      </trkpt>
      <trkpt lat="44.47264" lon="5.88682">
        <ele>1186.64</ele>
        <time>2015-04-22T13:51:34Z</time>
      </trkpt>
      <trkpt lat="44.47277" lon="5.88731">
        <ele>1186.39</ele>
        <time>2015-04-22T13:51:42Z</time>
      </trkpt>
      <trkpt lat="44.47288" lon="5.88735">
        <ele>1186.61</ele>
        <time>2015-04-22T13:51:44Z</time>
      </trkpt>
      <trkpt lat="44.47298" lon="5.88741">
        <ele>1186.3</ele>
        <time>2015-04-22T13:51:46Z</time>
      </trkpt>
      <trkpt lat="44.47323" lon="5.88761">
        <ele>1185.99</ele>
        <time>2015-04-22T13:51:51Z</time>
      </trkpt>
      <trkpt lat="44.47319" lon="5.88796">
        <ele>1186.7</ele>
        <time>2015-04-22T13:51:57Z</time>
      </trkpt>
      <trkpt lat="44.47323" lon="5.8883">
        <ele>1186.81</ele>
        <time>2015-04-22T13:52:02Z</time>
      </trkpt>
      <trkpt lat="44.47332" lon="5.88843">
        <ele>1186.92</ele>
        <time>2015-04-22T13:52:05Z</time>
      </trkpt>
      <trkpt lat="44.47354" lon="5.88864">
        <ele>1188.2</ele>
        <time>2015-04-22T13:52:16Z</time>
      </trkpt>
      <trkpt lat="44.4735" lon="5.88866">
        <ele>1188.09</ele>
        <time>2015-04-22T13:52:31Z</time>
      </trkpt>
      <trkpt lat="44.47353" lon="5.88872">
        <ele>1187.43</ele>
        <time>2015-04-22T13:52:43Z</time>
      </trkpt>
      <trkpt lat="44.47351" lon="5.88869">
        <ele>1187.12</ele>
        <time>2015-04-22T13:53:15Z</time>
      </trkpt>
      <trkpt lat="44.47348" lon="5.88865">
        <ele>1187.46</ele>
        <time>2015-04-22T13:53:45Z</time>
      </trkpt>
      <trkpt lat="44.47347" lon="5.88862">
        <ele>1187.78</ele>
        <time>2015-04-22T13:54:15Z</time>
      </trkpt>
      <trkpt lat="44.47355" lon="5.88862">
        <ele>1187.81</ele>
        <time>2015-04-22T13:54:36Z</time>
      </trkpt>
      <trkpt lat="44.47388" lon="5.8887">
        <ele>1187.36</ele>
        <time>2015-04-22T13:54:52Z</time>
      </trkpt>
      <trkpt lat="44.47418" lon="5.88874">
        <ele>1187.07</ele>
        <time>2015-04-22T13:55:00Z</time>
      </trkpt>
      <trkpt lat="44.4743" lon="5.8888">
        <ele>1187.18</ele>
        <time>2015-04-22T13:55:03Z</time>
      </trkpt>
      <trkpt lat="44.47439" lon="5.88884">
        <ele>1187.46</ele>
        <time>2015-04-22T13:55:05Z</time>
      </trkpt>
      <trkpt lat="44.47466" lon="5.88887">
        <ele>1188.03</ele>
        <time>2015-04-22T13:55:10Z</time>
      </trkpt>
      <trkpt lat="44.47491" lon="5.88894">
        <ele>1188.17</ele>
        <time>2015-04-22T13:55:15Z</time>
      </trkpt>
      <trkpt lat="44.47507" lon="5.88912">
        <ele>1188.66</ele>
        <time>2015-04-22T13:55:19Z</time>
      </trkpt>
      <trkpt lat="44.47513" lon="5.88923">
        <ele>1189.33</ele>
        <time>2015-04-22T13:55:21Z</time>
      </trkpt>
      <trkpt lat="44.47545" lon="5.88948">
        <ele>1187.14</ele>
        <time>2015-04-22T13:55:29Z</time>
      </trkpt>
      <trkpt lat="44.47566" lon="5.88935">
        <ele>1185.87</ele>
        <time>2015-04-22T13:55:34Z</time>
      </trkpt>
      <trkpt lat="44.47596" lon="5.88908">
        <ele>1184.48</ele>
        <time>2015-04-22T13:55:40Z</time>
      </trkpt>
      <trkpt lat="44.47627" lon="5.8891">
        <ele>1183.25</ele>
        <time>2015-04-22T13:55:45Z</time>
      </trkpt>
      <trkpt lat="44.47663" lon="5.88939">
        <ele>1181.22</ele>
        <time>2015-04-22T13:55:51Z</time>
      </trkpt>
      <trkpt lat="44.47707" lon="5.88959">
        <ele>1180.28</ele>
        <time>2015-04-22T13:55:57Z</time>
      </trkpt>
      <trkpt lat="44.47743" lon="5.88933">
        <ele>1179.01</ele>
        <time>2015-04-22T13:56:03Z</time>
      </trkpt>
      <trkpt lat="44.47745" lon="5.8891">
        <ele>1178.71</ele>
        <time>2015-04-22T13:56:05Z</time>
      </trkpt>
      <trkpt lat="44.47746" lon="5.88874">
        <ele>1178.49</ele>
        <time>2015-04-22T13:56:08Z</time>
      </trkpt>
      <trkpt lat="44.47736" lon="5.88829">
        <ele>1177.61</ele>
        <time>2015-04-22T13:56:12Z</time>
      </trkpt>
      <trkpt lat="44.47743" lon="5.88749">
        <ele>1174.22</ele>
        <time>2015-04-22T13:56:21Z</time>
      </trkpt>
      <trkpt lat="44.47757" lon="5.88743">
        <ele>1173.57</ele>
        <time>2015-04-22T13:56:23Z</time>
      </trkpt>
      <trkpt lat="44.47797" lon="5.88769">
        <ele>1173.07</ele>
        <time>2015-04-22T13:56:30Z</time>
      </trkpt>
      <trkpt lat="44.47801" lon="5.88785">
        <ele>1173.34</ele>
        <time>2015-04-22T13:56:32Z</time>
      </trkpt>
      <trkpt lat="44.4781" lon="5.88821">
        <ele>1172.27</ele>
        <time>2015-04-22T13:56:36Z</time>
      </trkpt>
      <trkpt lat="44.47843" lon="5.88855">
        <ele>1170.81</ele>
        <time>2015-04-22T13:56:42Z</time>
      </trkpt>
      <trkpt lat="44.4786" lon="5.88858">
        <ele>1169.91</ele>
        <time>2015-04-22T13:56:44Z</time>
      </trkpt>
      <trkpt lat="44.47915" lon="5.88862">
        <ele>1168.85</ele>
        <time>2015-04-22T13:56:50Z</time>
      </trkpt>
      <trkpt lat="44.47953" lon="5.88881">
        <ele>1167.32</ele>
        <time>2015-04-22T13:56:54Z</time>
      </trkpt>
      <trkpt lat="44.47969" lon="5.88896">
        <ele>1166.52</ele>
        <time>2015-04-22T13:56:56Z</time>
      </trkpt>
      <trkpt lat="44.4802" lon="5.889">
        <ele>1164.18</ele>
        <time>2015-04-22T13:57:02Z</time>
      </trkpt>
      <trkpt lat="44.48066" lon="5.88883">
        <ele>1163.13</ele>
        <time>2015-04-22T13:57:07Z</time>
      </trkpt>
      <trkpt lat="44.48096" lon="5.88876">
        <ele>1161.6</ele>
        <time>2015-04-22T13:57:10Z</time>
      </trkpt>
      <trkpt lat="44.48165" lon="5.88843">
        <ele>1158.12</ele>
        <time>2015-04-22T13:57:17Z</time>
      </trkpt>
      <trkpt lat="44.48195" lon="5.88834">
        <ele>1156.53</ele>
        <time>2015-04-22T13:57:20Z</time>
      </trkpt>
      <trkpt lat="44.48225" lon="5.88836">
        <ele>1155.04</ele>
        <time>2015-04-22T13:57:23Z</time>
      </trkpt>
      <trkpt lat="44.48235" lon="5.88837">
        <ele>1154.54</ele>
        <time>2015-04-22T13:57:24Z</time>
      </trkpt>
      <trkpt lat="44.48298" lon="5.88836">
        <ele>1150.68</ele>
        <time>2015-04-22T13:57:30Z</time>
      </trkpt>
      <trkpt lat="44.48335" lon="5.88833">
        <ele>1148.59</ele>
        <time>2015-04-22T13:57:34Z</time>
      </trkpt>
      <trkpt lat="44.48424" lon="5.88807">
        <ele>1144.89</ele>
        <time>2015-04-22T13:57:43Z</time>
      </trkpt>
      <trkpt lat="44.48449" lon="5.88804">
        <ele>1142.68</ele>
        <time>2015-04-22T13:57:46Z</time>
      </trkpt>
      <trkpt lat="44.48476" lon="5.88828">
        <ele>1139.57</ele>
        <time>2015-04-22T13:57:51Z</time>
      </trkpt>
      <trkpt lat="44.48533" lon="5.88865">
        <ele>1135.92</ele>
        <time>2015-04-22T13:58:01Z</time>
      </trkpt>
      <trkpt lat="44.48552" lon="5.88879">
        <ele>1133.73</ele>
        <time>2015-04-22T13:58:05Z</time>
      </trkpt>
      <trkpt lat="44.48576" lon="5.8891">
        <ele>1131.84</ele>
        <time>2015-04-22T13:58:10Z</time>
      </trkpt>
      <trkpt lat="44.48583" lon="5.88925">
        <ele>1130.16</ele>
        <time>2015-04-22T13:58:12Z</time>
      </trkpt>
      <trkpt lat="44.48609" lon="5.88934">
        <ele>1127.11</ele>
        <time>2015-04-22T13:58:17Z</time>
      </trkpt>
      <trkpt lat="44.48661" lon="5.88917">
        <ele>1125.56</ele>
        <time>2015-04-22T13:58:23Z</time>
      </trkpt>
      <trkpt lat="44.48697" lon="5.8892">
        <ele>1121.73</ele>
        <time>2015-04-22T13:58:27Z</time>
      </trkpt>
      <trkpt lat="44.48727" lon="5.88929">
        <ele>1119.15</ele>
        <time>2015-04-22T13:58:30Z</time>
      </trkpt>
      <trkpt lat="44.48764" lon="5.88964">
        <ele>1114.9</ele>
        <time>2015-04-22T13:58:35Z</time>
      </trkpt>
      <trkpt lat="44.48789" lon="5.88983">
        <ele>1111.47</ele>
        <time>2015-04-22T13:58:39Z</time>
      </trkpt>
      <trkpt lat="44.48809" lon="5.88987">
        <ele>1110.13</ele>
        <time>2015-04-22T13:58:42Z</time>
      </trkpt>
      <trkpt lat="44.48842" lon="5.88998">
        <ele>1108.28</ele>
        <time>2015-04-22T13:58:46Z</time>
      </trkpt>
      <trkpt lat="44.48866" lon="5.89028">
        <ele>1105.02</ele>
        <time>2015-04-22T13:58:50Z</time>
      </trkpt>
      <trkpt lat="44.48873" lon="5.89045">
        <ele>1103.89</ele>
        <time>2015-04-22T13:58:52Z</time>
      </trkpt>
      <trkpt lat="44.48906" lon="5.89055">
        <ele>1101.32</ele>
        <time>2015-04-22T13:58:58Z</time>
      </trkpt>
      <trkpt lat="44.4895" lon="5.89031">
        <ele>1099.36</ele>
        <time>2015-04-22T13:59:05Z</time>
      </trkpt>
      <trkpt lat="44.48963" lon="5.89045">
        <ele>1096.93</ele>
        <time>2015-04-22T13:59:10Z</time>
      </trkpt>
      <trkpt lat="44.48946" lon="5.89076">
        <ele>1095.81</ele>
        <time>2015-04-22T13:59:14Z</time>
      </trkpt>
      <trkpt lat="44.48937" lon="5.89095">
        <ele>1094.71</ele>
        <time>2015-04-22T13:59:16Z</time>
      </trkpt>
      <trkpt lat="44.4891" lon="5.89145">
        <ele>1092.17</ele>
        <time>2015-04-22T13:59:21Z</time>
      </trkpt>
      <trkpt lat="44.48927" lon="5.89202">
        <ele>1090.9</ele>
        <time>2015-04-22T13:59:26Z</time>
      </trkpt>
      <trkpt lat="44.48933" lon="5.89213">
        <ele>1091</ele>
        <time>2015-04-22T13:59:27Z</time>
      </trkpt>
      <trkpt lat="44.48956" lon="5.89271">
        <ele>1086.17</ele>
        <time>2015-04-22T13:59:32Z</time>
      </trkpt>
      <trkpt lat="44.48962" lon="5.89311">
        <ele>1083.01</ele>
        <time>2015-04-22T13:59:35Z</time>
      </trkpt>
      <trkpt lat="44.48991" lon="5.89339">
        <ele>1079.56</ele>
        <time>2015-04-22T13:59:41Z</time>
      </trkpt>
      <trkpt lat="44.49007" lon="5.89337">
        <ele>1079.14</ele>
        <time>2015-04-22T13:59:43Z</time>
      </trkpt>
      <trkpt lat="44.49062" lon="5.89354">
        <ele>1077.44</ele>
        <time>2015-04-22T13:59:49Z</time>
      </trkpt>
      <trkpt lat="44.49098" lon="5.89418">
        <ele>1073.44</ele>
        <time>2015-04-22T13:59:55Z</time>
      </trkpt>
      <trkpt lat="44.491" lon="5.89432">
        <ele>1072.42</ele>
        <time>2015-04-22T13:59:56Z</time>
      </trkpt>
      <trkpt lat="44.49125" lon="5.89476">
        <ele>1065.85</ele>
        <time>2015-04-22T14:00:01Z</time>
      </trkpt>
      <trkpt lat="44.49171" lon="5.89494">
        <ele>1063.6</ele>
        <time>2015-04-22T14:00:06Z</time>
      </trkpt>
      <trkpt lat="44.49186" lon="5.89507">
        <ele>1062.78</ele>
        <time>2015-04-22T14:00:08Z</time>
      </trkpt>
      <trkpt lat="44.49202" lon="5.89515">
        <ele>1060.47</ele>
        <time>2015-04-22T14:00:10Z</time>
      </trkpt>
      <trkpt lat="44.49217" lon="5.89554">
        <ele>1055.75</ele>
        <time>2015-04-22T14:00:15Z</time>
      </trkpt>
      <trkpt lat="44.49244" lon="5.89611">
        <ele>1052.55</ele>
        <time>2015-04-22T14:00:21Z</time>
      </trkpt>
      <trkpt lat="44.49271" lon="5.89634">
        <ele>1050.96</ele>
        <time>2015-04-22T14:00:24Z</time>
      </trkpt>
      <trkpt lat="44.49317" lon="5.89717">
        <ele>1047.13</ele>
        <time>2015-04-22T14:00:31Z</time>
      </trkpt>
      <trkpt lat="44.49326" lon="5.89728">
        <ele>1046.19</ele>
        <time>2015-04-22T14:00:32Z</time>
      </trkpt>
      <trkpt lat="44.49343" lon="5.89746">
        <ele>1044.64</ele>
        <time>2015-04-22T14:00:34Z</time>
      </trkpt>
      <trkpt lat="44.49399" lon="5.89763">
        <ele>1040.19</ele>
        <time>2015-04-22T14:00:40Z</time>
      </trkpt>
      <trkpt lat="44.49427" lon="5.89761">
        <ele>1036.79</ele>
        <time>2015-04-22T14:00:43Z</time>
      </trkpt>
      <trkpt lat="44.49465" lon="5.89739">
        <ele>1034.17</ele>
        <time>2015-04-22T14:00:48Z</time>
      </trkpt>
      <trkpt lat="44.49501" lon="5.89695">
        <ele>1032.16</ele>
        <time>2015-04-22T14:00:53Z</time>
      </trkpt>
      <trkpt lat="44.49527" lon="5.89674">
        <ele>1030.6</ele>
        <time>2015-04-22T14:00:56Z</time>
      </trkpt>
      <trkpt lat="44.49578" lon="5.89633">
        <ele>1026.46</ele>
        <time>2015-04-22T14:01:02Z</time>
      </trkpt>
      <trkpt lat="44.49586" lon="5.89627">
        <ele>1025.73</ele>
        <time>2015-04-22T14:01:03Z</time>
      </trkpt>
      <trkpt lat="44.49613" lon="5.89598">
        <ele>1023.61</ele>
        <time>2015-04-22T14:01:05Z</time>
      </trkpt>
      <trkpt lat="44.49661" lon="5.89565">
        <ele>1018.69</ele>
        <time>2015-04-22T14:01:09Z</time>
      </trkpt>
      <trkpt lat="44.49701" lon="5.89545">
        <ele>1014.6</ele>
        <time>2015-04-22T14:01:13Z</time>
      </trkpt>
      <trkpt lat="44.49725" lon="5.89556">
        <ele>1010.85</ele>
        <time>2015-04-22T14:01:18Z</time>
      </trkpt>
      <trkpt lat="44.49754" lon="5.89589">
        <ele>1009.59</ele>
        <time>2015-04-22T14:01:24Z</time>
      </trkpt>
      <trkpt lat="44.49815" lon="5.89606">
        <ele>1009.42</ele>
        <time>2015-04-22T14:01:33Z</time>
      </trkpt>
      <trkpt lat="44.49878" lon="5.89583">
        <ele>1006.92</ele>
        <time>2015-04-22T14:01:42Z</time>
      </trkpt>
      <trkpt lat="44.49917" lon="5.89532">
        <ele>1006.16</ele>
        <time>2015-04-22T14:01:49Z</time>
      </trkpt>
      <trkpt lat="44.49925" lon="5.89511">
        <ele>1005.64</ele>
        <time>2015-04-22T14:01:51Z</time>
      </trkpt>
      <trkpt lat="44.4997" lon="5.89436">
        <ele>1003.85</ele>
        <time>2015-04-22T14:01:59Z</time>
      </trkpt>
      <trkpt lat="44.50049" lon="5.89351">
        <ele>1000.56</ele>
        <time>2015-04-22T14:02:10Z</time>
      </trkpt>
      <trkpt lat="44.50077" lon="5.8932">
        <ele>999.42</ele>
        <time>2015-04-22T14:02:14Z</time>
      </trkpt>
      <trkpt lat="44.50094" lon="5.89263">
        <ele>999.63</ele>
        <time>2015-04-22T14:02:19Z</time>
      </trkpt>
      <trkpt lat="44.501" lon="5.89203">
        <ele>999.49</ele>
        <time>2015-04-22T14:02:24Z</time>
      </trkpt>
      <trkpt lat="44.5012" lon="5.89096">
        <ele>995.99</ele>
        <time>2015-04-22T14:02:33Z</time>
      </trkpt>
      <trkpt lat="44.50119" lon="5.89069">
        <ele>995.26</ele>
        <time>2015-04-22T14:02:35Z</time>
      </trkpt>
      <trkpt lat="44.50139" lon="5.88987">
        <ele>994.16</ele>
        <time>2015-04-22T14:02:42Z</time>
      </trkpt>
      <trkpt lat="44.50168" lon="5.88918">
        <ele>992.94</ele>
        <time>2015-04-22T14:02:48Z</time>
      </trkpt>
      <trkpt lat="44.50196" lon="5.88888">
        <ele>992.21</ele>
        <time>2015-04-22T14:02:52Z</time>
      </trkpt>
      <trkpt lat="44.50257" lon="5.88838">
        <ele>990.06</ele>
        <time>2015-04-22T14:03:00Z</time>
      </trkpt>
      <trkpt lat="44.50338" lon="5.88759">
        <ele>986.96</ele>
        <time>2015-04-22T14:03:11Z</time>
      </trkpt>
      <trkpt lat="44.50429" lon="5.88695">
        <ele>984.61</ele>
        <time>2015-04-22T14:03:22Z</time>
      </trkpt>
      <trkpt lat="44.50437" lon="5.8869">
        <ele>984.43</ele>
        <time>2015-04-22T14:03:23Z</time>
      </trkpt>
      <trkpt lat="44.50451" lon="5.88675">
        <ele>983.95</ele>
        <time>2015-04-22T14:03:25Z</time>
      </trkpt>
      <trkpt lat="44.50493" lon="5.88608">
        <ele>981.55</ele>
        <time>2015-04-22T14:03:32Z</time>
      </trkpt>
      <trkpt lat="44.50502" lon="5.88573">
        <ele>980.95</ele>
        <time>2015-04-22T14:03:35Z</time>
      </trkpt>
      <trkpt lat="44.50541" lon="5.88543">
        <ele>977.83</ele>
        <time>2015-04-22T14:03:41Z</time>
      </trkpt>
      <trkpt lat="44.50579" lon="5.88496">
        <ele>976.49</ele>
        <time>2015-04-22T14:03:47Z</time>
      </trkpt>
      <trkpt lat="44.50573" lon="5.88423">
        <ele>974.57</ele>
        <time>2015-04-22T14:03:53Z</time>
      </trkpt>
      <trkpt lat="44.5057" lon="5.88412">
        <ele>974.37</ele>
        <time>2015-04-22T14:03:54Z</time>
      </trkpt>
      <trkpt lat="44.50561" lon="5.88379">
        <ele>973.42</ele>
        <time>2015-04-22T14:03:57Z</time>
      </trkpt>
      <trkpt lat="44.50578" lon="5.8833">
        <ele>972.37</ele>
        <time>2015-04-22T14:04:03Z</time>
      </trkpt>
      <trkpt lat="44.50686" lon="5.88246">
        <ele>969.79</ele>
        <time>2015-04-22T14:04:17Z</time>
      </trkpt>
      <trkpt lat="44.50781" lon="5.88166">
        <ele>966.59</ele>
        <time>2015-04-22T14:04:29Z</time>
      </trkpt>
      <trkpt lat="44.50906" lon="5.88064">
        <ele>963.65</ele>
        <time>2015-04-22T14:04:45Z</time>
      </trkpt>
      <trkpt lat="44.51038" lon="5.87958">
        <ele>961.31</ele>
        <time>2015-04-22T14:05:01Z</time>
      </trkpt>
      <trkpt lat="44.51119" lon="5.87891">
        <ele>960.46</ele>
        <time>2015-04-22T14:05:13Z</time>
      </trkpt>
      <trkpt lat="44.51161" lon="5.87862">
        <ele>958.78</ele>
        <time>2015-04-22T14:05:23Z</time>
      </trkpt>
      <trkpt lat="44.51156" lon="5.87868">
        <ele>958.22</ele>
        <time>2015-04-22T14:05:34Z</time>
      </trkpt>
      <trkpt lat="44.51172" lon="5.87878">
        <ele>958.66</ele>
        <time>2015-04-22T14:05:56Z</time>
      </trkpt>
      <trkpt lat="44.51219" lon="5.87918">
        <ele>958.22</ele>
        <time>2015-04-22T14:06:09Z</time>
      </trkpt>
      <trkpt lat="44.51278" lon="5.8799">
        <ele>958.22</ele>
        <time>2015-04-22T14:06:22Z</time>
      </trkpt>
      <trkpt lat="44.51299" lon="5.88013">
        <ele>958.62</ele>
        <time>2015-04-22T14:06:26Z</time>
      </trkpt>
      <trkpt lat="44.51393" lon="5.88098">
        <ele>957.28</ele>
        <time>2015-04-22T14:06:43Z</time>
      </trkpt>
      <trkpt lat="44.51437" lon="5.88117">
        <ele>956.56</ele>
        <time>2015-04-22T14:06:49Z</time>
      </trkpt>
      <trkpt lat="44.51517" lon="5.88168">
        <ele>955.01</ele>
        <time>2015-04-22T14:07:01Z</time>
      </trkpt>
      <trkpt lat="44.51617" lon="5.88152">
        <ele>954.18</ele>
        <time>2015-04-22T14:07:12Z</time>
      </trkpt>
      <trkpt lat="44.51633" lon="5.88153">
        <ele>954.09</ele>
        <time>2015-04-22T14:07:14Z</time>
      </trkpt>
      <trkpt lat="44.51679" lon="5.88163">
        <ele>952.21</ele>
        <time>2015-04-22T14:07:20Z</time>
      </trkpt>
      <trkpt lat="44.51694" lon="5.88175">
        <ele>951.72</ele>
        <time>2015-04-22T14:07:22Z</time>
      </trkpt>
      <trkpt lat="44.51772" lon="5.88231">
        <ele>949.07</ele>
        <time>2015-04-22T14:07:31Z</time>
      </trkpt>
      <trkpt lat="44.51854" lon="5.883">
        <ele>946.11</ele>
        <time>2015-04-22T14:07:40Z</time>
      </trkpt>
      <trkpt lat="44.51894" lon="5.88308">
        <ele>944.56</ele>
        <time>2015-04-22T14:07:44Z</time>
      </trkpt>
      <trkpt lat="44.51905" lon="5.88307">
        <ele>944.5</ele>
        <time>2015-04-22T14:07:45Z</time>
      </trkpt>
      <trkpt lat="44.52036" lon="5.88268">
        <ele>942.87</ele>
        <time>2015-04-22T14:07:58Z</time>
      </trkpt>
      <trkpt lat="44.52074" lon="5.88257">
        <ele>941.79</ele>
        <time>2015-04-22T14:08:02Z</time>
      </trkpt>
      <trkpt lat="44.52195" lon="5.8819">
        <ele>939.47</ele>
        <time>2015-04-22T14:08:16Z</time>
      </trkpt>
      <trkpt lat="44.52274" lon="5.88141">
        <ele>938.52</ele>
        <time>2015-04-22T14:08:25Z</time>
      </trkpt>
      <trkpt lat="44.52348" lon="5.88104">
        <ele>935.16</ele>
        <time>2015-04-22T14:08:33Z</time>
      </trkpt>
      <trkpt lat="44.52428" lon="5.8805">
        <ele>933.56</ele>
        <time>2015-04-22T14:08:42Z</time>
      </trkpt>
      <trkpt lat="44.52478" lon="5.87991">
        <ele>931.96</ele>
        <time>2015-04-22T14:08:48Z</time>
      </trkpt>
      <trkpt lat="44.52496" lon="5.87971">
        <ele>931.32</ele>
        <time>2015-04-22T14:08:50Z</time>
      </trkpt>
      <trkpt lat="44.52607" lon="5.87894">
        <ele>929.04</ele>
        <time>2015-04-22T14:09:03Z</time>
      </trkpt>
      <trkpt lat="44.52654" lon="5.87859">
        <ele>928.58</ele>
        <time>2015-04-22T14:09:08Z</time>
      </trkpt>
      <trkpt lat="44.5277" lon="5.87808">
        <ele>926.35</ele>
        <time>2015-04-22T14:09:20Z</time>
      </trkpt>
      <trkpt lat="44.52781" lon="5.87801">
        <ele>926.01</ele>
        <time>2015-04-22T14:09:21Z</time>
      </trkpt>
      <trkpt lat="44.528" lon="5.87791">
        <ele>925.55</ele>
        <time>2015-04-22T14:09:23Z</time>
      </trkpt>
      <trkpt lat="44.52847" lon="5.87746">
        <ele>925.16</ele>
        <time>2015-04-22T14:09:29Z</time>
      </trkpt>
      <trkpt lat="44.52871" lon="5.87705">
        <ele>924.76</ele>
        <time>2015-04-22T14:09:33Z</time>
      </trkpt>
      <trkpt lat="44.52912" lon="5.87685">
        <ele>924.61</ele>
        <time>2015-04-22T14:09:38Z</time>
      </trkpt>
      <trkpt lat="44.5294" lon="5.87679">
        <ele>923.37</ele>
        <time>2015-04-22T14:09:41Z</time>
      </trkpt>
      <trkpt lat="44.52975" lon="5.87635">
        <ele>921.62</ele>
        <time>2015-04-22T14:09:46Z</time>
      </trkpt>
      <trkpt lat="44.5305" lon="5.87477">
        <ele>918.09</ele>
        <time>2015-04-22T14:09:59Z</time>
      </trkpt>
      <trkpt lat="44.53112" lon="5.87327">
        <ele>917.04</ele>
        <time>2015-04-22T14:10:11Z</time>
      </trkpt>
      <trkpt lat="44.53141" lon="5.87238">
        <ele>913.94</ele>
        <time>2015-04-22T14:10:18Z</time>
      </trkpt>
      <trkpt lat="44.53197" lon="5.87061">
        <ele>911.18</ele>
        <time>2015-04-22T14:10:32Z</time>
      </trkpt>
      <trkpt lat="44.53252" lon="5.86884">
        <ele>908.73</ele>
        <time>2015-04-22T14:10:46Z</time>
      </trkpt>
      <trkpt lat="44.53283" lon="5.86713">
        <ele>906.77</ele>
        <time>2015-04-22T14:10:59Z</time>
      </trkpt>
      <trkpt lat="44.53289" lon="5.86601">
        <ele>904.88</ele>
        <time>2015-04-22T14:11:07Z</time>
      </trkpt>
      <trkpt lat="44.53256" lon="5.86462">
        <ele>903.85</ele>
        <time>2015-04-22T14:11:18Z</time>
      </trkpt>
      <trkpt lat="44.5325" lon="5.86408">
        <ele>903.27</ele>
        <time>2015-04-22T14:11:22Z</time>
      </trkpt>
      <trkpt lat="44.53247" lon="5.86238">
        <ele>900.51</ele>
        <time>2015-04-22T14:11:34Z</time>
      </trkpt>
      <trkpt lat="44.53245" lon="5.8613">
        <ele>897.22</ele>
        <time>2015-04-22T14:11:42Z</time>
      </trkpt>
      <trkpt lat="44.53244" lon="5.8609">
        <ele>896.4</ele>
        <time>2015-04-22T14:11:45Z</time>
      </trkpt>
      <trkpt lat="44.53267" lon="5.8595">
        <ele>894.03</ele>
        <time>2015-04-22T14:11:56Z</time>
      </trkpt>
      <trkpt lat="44.53298" lon="5.85811">
        <ele>891.99</ele>
        <time>2015-04-22T14:12:07Z</time>
      </trkpt>
      <trkpt lat="44.53329" lon="5.8566">
        <ele>888.94</ele>
        <time>2015-04-22T14:12:19Z</time>
      </trkpt>
      <trkpt lat="44.53335" lon="5.85612">
        <ele>888.08</ele>
        <time>2015-04-22T14:12:23Z</time>
      </trkpt>
      <trkpt lat="44.53369" lon="5.8558">
        <ele>887.67</ele>
        <time>2015-04-22T14:12:29Z</time>
      </trkpt>
      <trkpt lat="44.53402" lon="5.85569">
        <ele>888.05</ele>
        <time>2015-04-22T14:12:34Z</time>
      </trkpt>
      <trkpt lat="44.53489" lon="5.85477">
        <ele>887.14</ele>
        <time>2015-04-22T14:12:48Z</time>
      </trkpt>
      <trkpt lat="44.53546" lon="5.85428">
        <ele>884.11</ele>
        <time>2015-04-22T14:12:57Z</time>
      </trkpt>
      <trkpt lat="44.53648" lon="5.8538">
        <ele>883.1</ele>
        <time>2015-04-22T14:13:11Z</time>
      </trkpt>
      <trkpt lat="44.53687" lon="5.85343">
        <ele>880.59</ele>
        <time>2015-04-22T14:13:17Z</time>
      </trkpt>
      <trkpt lat="44.53772" lon="5.85237">
        <ele>879.01</ele>
        <time>2015-04-22T14:13:31Z</time>
      </trkpt>
      <trkpt lat="44.53865" lon="5.85118">
        <ele>876.89</ele>
        <time>2015-04-22T14:13:46Z</time>
      </trkpt>
      <trkpt lat="44.5394" lon="5.85027">
        <ele>876.46</ele>
        <time>2015-04-22T14:13:59Z</time>
      </trkpt>
      <trkpt lat="44.53953" lon="5.8501">
        <ele>876.02</ele>
        <time>2015-04-22T14:14:02Z</time>
      </trkpt>
      <trkpt lat="44.54012" lon="5.84965">
        <ele>874.39</ele>
        <time>2015-04-22T14:14:15Z</time>
      </trkpt>
      <trkpt lat="44.54029" lon="5.84959">
        <ele>874.92</ele>
        <time>2015-04-22T14:14:19Z</time>
      </trkpt>
      <trkpt lat="44.54108" lon="5.84966">
        <ele>875.78</ele>
        <time>2015-04-22T14:14:33Z</time>
      </trkpt>
      <trkpt lat="44.54167" lon="5.84977">
        <ele>876.75</ele>
        <time>2015-04-22T14:14:44Z</time>
      </trkpt>
      <trkpt lat="44.54177" lon="5.84981">
        <ele>876.85</ele>
        <time>2015-04-22T14:14:46Z</time>
      </trkpt>
      <trkpt lat="44.54195" lon="5.84997">
        <ele>877.68</ele>
        <time>2015-04-22T14:14:50Z</time>
      </trkpt>
      <trkpt lat="44.5425" lon="5.85068">
        <ele>879.14</ele>
        <time>2015-04-22T14:15:02Z</time>
      </trkpt>
      <trkpt lat="44.54281" lon="5.85119">
        <ele>879.73</ele>
        <time>2015-04-22T14:15:11Z</time>
      </trkpt>
      <trkpt lat="44.54286" lon="5.8512">
        <ele>879.88</ele>
        <time>2015-04-22T14:15:12Z</time>
      </trkpt>
      <trkpt lat="44.54349" lon="5.85139">
        <ele>881.81</ele>
        <time>2015-04-22T14:15:24Z</time>
      </trkpt>
      <trkpt lat="44.54434" lon="5.85154">
        <ele>884.44</ele>
        <time>2015-04-22T14:15:39Z</time>
      </trkpt>
      <trkpt lat="44.54534" lon="5.85196">
        <ele>886.97</ele>
        <time>2015-04-22T14:15:57Z</time>
      </trkpt>
      <trkpt lat="44.54545" lon="5.85202">
        <ele>887.05</ele>
        <time>2015-04-22T14:15:59Z</time>
      </trkpt>
      <trkpt lat="44.54608" lon="5.85275">
        <ele>888.39</ele>
        <time>2015-04-22T14:16:12Z</time>
      </trkpt>
      <trkpt lat="44.54671" lon="5.85389">
        <ele>891.42</ele>
        <time>2015-04-22T14:16:28Z</time>
      </trkpt>
      <trkpt lat="44.54685" lon="5.85407">
        <ele>891.91</ele>
        <time>2015-04-22T14:16:31Z</time>
      </trkpt>
      <trkpt lat="44.54719" lon="5.85428">
        <ele>893.01</ele>
        <time>2015-04-22T14:16:38Z</time>
      </trkpt>
      <trkpt lat="44.54736" lon="5.85419">
        <ele>894.13</ele>
        <time>2015-04-22T14:16:43Z</time>
      </trkpt>
      <trkpt lat="44.54753" lon="5.8543">
        <ele>894.75</ele>
        <time>2015-04-22T14:16:48Z</time>
      </trkpt>
      <trkpt lat="44.54805" lon="5.85537">
        <ele>896.56</ele>
        <time>2015-04-22T14:17:04Z</time>
      </trkpt>
      <trkpt lat="44.54855" lon="5.85651">
        <ele>896.59</ele>
        <time>2015-04-22T14:17:18Z</time>
      </trkpt>
      <trkpt lat="44.54913" lon="5.8579">
        <ele>897.73</ele>
        <time>2015-04-22T14:17:34Z</time>
      </trkpt>
      <trkpt lat="44.54965" lon="5.85922">
        <ele>898.31</ele>
        <time>2015-04-22T14:17:48Z</time>
      </trkpt>
      <trkpt lat="44.55018" lon="5.8606">
        <ele>899.32</ele>
        <time>2015-04-22T14:18:03Z</time>
      </trkpt>
      <trkpt lat="44.55082" lon="5.86216">
        <ele>899.99</ele>
        <time>2015-04-22T14:18:20Z</time>
      </trkpt>
      <trkpt lat="44.55152" lon="5.86394">
        <ele>899.71</ele>
        <time>2015-04-22T14:18:37Z</time>
      </trkpt>
      <trkpt lat="44.55231" lon="5.86594">
        <ele>900.98</ele>
        <time>2015-04-22T14:18:56Z</time>
      </trkpt>
      <trkpt lat="44.55302" lon="5.8677">
        <ele>900.66</ele>
        <time>2015-04-22T14:19:12Z</time>
      </trkpt>
      <trkpt lat="44.55382" lon="5.86964">
        <ele>898.88</ele>
        <time>2015-04-22T14:19:28Z</time>
      </trkpt>
      <trkpt lat="44.55458" lon="5.87154">
        <ele>899.71</ele>
        <time>2015-04-22T14:19:44Z</time>
      </trkpt>
      <trkpt lat="44.55542" lon="5.87363">
        <ele>901.67</ele>
        <time>2015-04-22T14:20:02Z</time>
      </trkpt>
      <trkpt lat="44.55602" lon="5.87518">
        <ele>903.23</ele>
        <time>2015-04-22T14:20:16Z</time>
      </trkpt>
      <trkpt lat="44.5567" lon="5.87687">
        <ele>904.03</ele>
        <time>2015-04-22T14:20:32Z</time>
      </trkpt>
      <trkpt lat="44.55739" lon="5.87858">
        <ele>904.46</ele>
        <time>2015-04-22T14:20:48Z</time>
      </trkpt>
      <trkpt lat="44.55805" lon="5.88019">
        <ele>907.05</ele>
        <time>2015-04-22T14:21:04Z</time>
      </trkpt>
      <trkpt lat="44.55809" lon="5.88029">
        <ele>907.4</ele>
        <time>2015-04-22T14:21:05Z</time>
      </trkpt>
      <trkpt lat="44.55855" lon="5.88142">
        <ele>910.72</ele>
        <time>2015-04-22T14:21:17Z</time>
      </trkpt>
      <trkpt lat="44.55902" lon="5.88258">
        <ele>913.75</ele>
        <time>2015-04-22T14:21:30Z</time>
      </trkpt>
      <trkpt lat="44.55951" lon="5.8838">
        <ele>915.7</ele>
        <time>2015-04-22T14:21:43Z</time>
      </trkpt>
      <trkpt lat="44.56009" lon="5.88525">
        <ele>917.3</ele>
        <time>2015-04-22T14:21:58Z</time>
      </trkpt>
      <trkpt lat="44.56068" lon="5.88671">
        <ele>918.25</ele>
        <time>2015-04-22T14:22:12Z</time>
      </trkpt>
      <trkpt lat="44.56126" lon="5.88829">
        <ele>919.47</ele>
        <time>2015-04-22T14:22:27Z</time>
      </trkpt>
      <trkpt lat="44.56171" lon="5.89">
        <ele>918.17</ele>
        <time>2015-04-22T14:22:41Z</time>
      </trkpt>
      <trkpt lat="44.56187" lon="5.89176">
        <ele>915.54</ele>
        <time>2015-04-22T14:22:53Z</time>
      </trkpt>
      <trkpt lat="44.5619" lon="5.89401">
        <ele>915.22</ele>
        <time>2015-04-22T14:23:08Z</time>
      </trkpt>
      <trkpt lat="44.5619" lon="5.89611">
        <ele>917.18</ele>
        <time>2015-04-22T14:23:23Z</time>
      </trkpt>
      <trkpt lat="44.56187" lon="5.89788">
        <ele>919.56</ele>
        <time>2015-04-22T14:23:37Z</time>
      </trkpt>
      <trkpt lat="44.56187" lon="5.89974">
        <ele>920.31</ele>
        <time>2015-04-22T14:23:52Z</time>
      </trkpt>
      <trkpt lat="44.56191" lon="5.90166">
        <ele>921.65</ele>
        <time>2015-04-22T14:24:07Z</time>
      </trkpt>
      <trkpt lat="44.56191" lon="5.90332">
        <ele>922.25</ele>
        <time>2015-04-22T14:24:22Z</time>
      </trkpt>
      <trkpt lat="44.5619" lon="5.90495">
        <ele>922.91</ele>
        <time>2015-04-22T14:24:37Z</time>
      </trkpt>
      <trkpt lat="44.56191" lon="5.90675">
        <ele>924.23</ele>
        <time>2015-04-22T14:24:53Z</time>
      </trkpt>
      <trkpt lat="44.56191" lon="5.90842">
        <ele>926.11</ele>
        <time>2015-04-22T14:25:08Z</time>
      </trkpt>
      <trkpt lat="44.5619" lon="5.9101">
        <ele>928.08</ele>
        <time>2015-04-22T14:25:24Z</time>
      </trkpt>
      <trkpt lat="44.5619" lon="5.91158">
        <ele>929.39</ele>
        <time>2015-04-22T14:25:39Z</time>
      </trkpt>
      <trkpt lat="44.56192" lon="5.9128">
        <ele>931.32</ele>
        <time>2015-04-22T14:25:53Z</time>
      </trkpt>
      <trkpt lat="44.56191" lon="5.91422">
        <ele>933.09</ele>
        <time>2015-04-22T14:26:08Z</time>
      </trkpt>
      <trkpt lat="44.56191" lon="5.91566">
        <ele>934.62</ele>
        <time>2015-04-22T14:26:23Z</time>
      </trkpt>
      <trkpt lat="44.56186" lon="5.91723">
        <ele>936.18</ele>
        <time>2015-04-22T14:26:40Z</time>
      </trkpt>
      <trkpt lat="44.56186" lon="5.9186">
        <ele>939.06</ele>
        <time>2015-04-22T14:26:55Z</time>
      </trkpt>
      <trkpt lat="44.56189" lon="5.92005">
        <ele>941.66</ele>
        <time>2015-04-22T14:27:11Z</time>
      </trkpt>
      <trkpt lat="44.56193" lon="5.92157">
        <ele>944.86</ele>
        <time>2015-04-22T14:27:27Z</time>
      </trkpt>
      <trkpt lat="44.56192" lon="5.9227">
        <ele>947.92</ele>
        <time>2015-04-22T14:27:40Z</time>
      </trkpt>
      <trkpt lat="44.5619" lon="5.92402">
        <ele>951.08</ele>
        <time>2015-04-22T14:27:55Z</time>
      </trkpt>
      <trkpt lat="44.56189" lon="5.92522">
        <ele>952.87</ele>
        <time>2015-04-22T14:28:09Z</time>
      </trkpt>
      <trkpt lat="44.56188" lon="5.92657">
        <ele>954.3</ele>
        <time>2015-04-22T14:28:24Z</time>
      </trkpt>
      <trkpt lat="44.56188" lon="5.92842">
        <ele>955.35</ele>
        <time>2015-04-22T14:28:43Z</time>
      </trkpt>
      <trkpt lat="44.56188" lon="5.93022">
        <ele>955.88</ele>
        <time>2015-04-22T14:29:00Z</time>
      </trkpt>
      <trkpt lat="44.56188" lon="5.93221">
        <ele>954.71</ele>
        <time>2015-04-22T14:29:16Z</time>
      </trkpt>
      <trkpt lat="44.56189" lon="5.93419">
        <ele>953.85</ele>
        <time>2015-04-22T14:29:30Z</time>
      </trkpt>
      <trkpt lat="44.56189" lon="5.936">
        <ele>954.18</ele>
        <time>2015-04-22T14:29:44Z</time>
      </trkpt>
      <trkpt lat="44.5619" lon="5.93783">
        <ele>955</ele>
        <time>2015-04-22T14:30:01Z</time>
      </trkpt>
      <trkpt lat="44.5619" lon="5.93941">
        <ele>956.65</ele>
        <time>2015-04-22T14:30:17Z</time>
      </trkpt>
      <trkpt lat="44.56189" lon="5.94121">
        <ele>958.61</ele>
        <time>2015-04-22T14:30:35Z</time>
      </trkpt>
      <trkpt lat="44.56188" lon="5.94299">
        <ele>960.38</ele>
        <time>2015-04-22T14:30:53Z</time>
      </trkpt>
      <trkpt lat="44.56189" lon="5.94467">
        <ele>962.41</ele>
        <time>2015-04-22T14:31:10Z</time>
      </trkpt>
      <trkpt lat="44.56189" lon="5.94583">
        <ele>964.49</ele>
        <time>2015-04-22T14:31:22Z</time>
      </trkpt>
      <trkpt lat="44.56189" lon="5.94601">
        <ele>964.44</ele>
        <time>2015-04-22T14:31:24Z</time>
      </trkpt>
      <trkpt lat="44.56188" lon="5.9474">
        <ele>966.09</ele>
        <time>2015-04-22T14:31:39Z</time>
      </trkpt>
      <trkpt lat="44.56184" lon="5.94894">
        <ele>967.98</ele>
        <time>2015-04-22T14:31:56Z</time>
      </trkpt>
      <trkpt lat="44.56185" lon="5.95038">
        <ele>969.74</ele>
        <time>2015-04-22T14:32:12Z</time>
      </trkpt>
      <trkpt lat="44.56186" lon="5.95186">
        <ele>970.93</ele>
        <time>2015-04-22T14:32:29Z</time>
      </trkpt>
      <trkpt lat="44.56191" lon="5.95298">
        <ele>973.09</ele>
        <time>2015-04-22T14:32:41Z</time>
      </trkpt>
      <trkpt lat="44.56191" lon="5.95335">
        <ele>972.97</ele>
        <time>2015-04-22T14:32:45Z</time>
      </trkpt>
      <trkpt lat="44.5619" lon="5.95373">
        <ele>973.59</ele>
        <time>2015-04-22T14:32:49Z</time>
      </trkpt>
      <trkpt lat="44.56192" lon="5.95439">
        <ele>974.7</ele>
        <time>2015-04-22T14:32:56Z</time>
      </trkpt>
      <trkpt lat="44.56194" lon="5.9551">
        <ele>975.31</ele>
        <time>2015-04-22T14:33:04Z</time>
      </trkpt>
      <trkpt lat="44.56165" lon="5.95581">
        <ele>976.7</ele>
        <time>2015-04-22T14:33:14Z</time>
      </trkpt>
      <trkpt lat="44.56159" lon="5.95584">
        <ele>976.78</ele>
        <time>2015-04-22T14:33:15Z</time>
      </trkpt>
      <trkpt lat="44.56094" lon="5.95616">
        <ele>977.99</ele>
        <time>2015-04-22T14:33:29Z</time>
      </trkpt>
      <trkpt lat="44.56084" lon="5.95618">
        <ele>977.84</ele>
        <time>2015-04-22T14:33:31Z</time>
      </trkpt>
      <trkpt lat="44.56018" lon="5.95592">
        <ele>975.72</ele>
        <time>2015-04-22T14:33:43Z</time>
      </trkpt>
      <trkpt lat="44.5599" lon="5.9558">
        <ele>974.32</ele>
        <time>2015-04-22T14:33:48Z</time>
      </trkpt>
      <trkpt lat="44.55972" lon="5.95564">
        <ele>974.28</ele>
        <time>2015-04-22T14:33:52Z</time>
      </trkpt>
      <trkpt lat="44.55962" lon="5.95546">
        <ele>974.91</ele>
        <time>2015-04-22T14:33:55Z</time>
      </trkpt>
      <trkpt lat="44.55911" lon="5.95465">
        <ele>974.95</ele>
        <time>2015-04-22T14:34:07Z</time>
      </trkpt>
      <trkpt lat="44.55853" lon="5.95395">
        <ele>972.7</ele>
        <time>2015-04-22T14:34:17Z</time>
      </trkpt>
      <trkpt lat="44.55824" lon="5.9538">
        <ele>970.88</ele>
        <time>2015-04-22T14:34:21Z</time>
      </trkpt>
      <trkpt lat="44.55737" lon="5.95352">
        <ele>970.08</ele>
        <time>2015-04-22T14:34:34Z</time>
      </trkpt>
      <trkpt lat="44.55654" lon="5.95296">
        <ele>970</ele>
        <time>2015-04-22T14:34:47Z</time>
      </trkpt>
      <trkpt lat="44.55545" lon="5.95215">
        <ele>969.26</ele>
        <time>2015-04-22T14:35:03Z</time>
      </trkpt>
      <trkpt lat="44.55459" lon="5.95159">
        <ele>968.22</ele>
        <time>2015-04-22T14:35:15Z</time>
      </trkpt>
      <trkpt lat="44.55361" lon="5.95144">
        <ele>967.15</ele>
        <time>2015-04-22T14:35:28Z</time>
      </trkpt>
      <trkpt lat="44.55238" lon="5.95132">
        <ele>969.49</ele>
        <time>2015-04-22T14:35:48Z</time>
      </trkpt>
      <trkpt lat="44.55171" lon="5.95126">
        <ele>971.19</ele>
        <time>2015-04-22T14:36:01Z</time>
      </trkpt>
      <trkpt lat="44.55072" lon="5.95117">
        <ele>973.47</ele>
        <time>2015-04-22T14:36:21Z</time>
      </trkpt>
      <trkpt lat="44.55002" lon="5.95111">
        <ele>975.87</ele>
        <time>2015-04-22T14:36:35Z</time>
      </trkpt>
      <trkpt lat="44.54961" lon="5.95107">
        <ele>977.42</ele>
        <time>2015-04-22T14:36:42Z</time>
      </trkpt>
      <trkpt lat="44.54865" lon="5.95097">
        <ele>980.86</ele>
        <time>2015-04-22T14:36:58Z</time>
      </trkpt>
      <trkpt lat="44.54751" lon="5.9509">
        <ele>983.88</ele>
        <time>2015-04-22T14:37:18Z</time>
      </trkpt>
      <trkpt lat="44.54718" lon="5.95095">
        <ele>985.4</ele>
        <time>2015-04-22T14:37:24Z</time>
      </trkpt>
      <trkpt lat="44.54624" lon="5.95121">
        <ele>988.75</ele>
        <time>2015-04-22T14:37:42Z</time>
      </trkpt>
      <trkpt lat="44.54542" lon="5.95147">
        <ele>991.51</ele>
        <time>2015-04-22T14:37:59Z</time>
      </trkpt>
      <trkpt lat="44.54473" lon="5.95174">
        <ele>994.56</ele>
        <time>2015-04-22T14:38:14Z</time>
      </trkpt>
      <trkpt lat="44.54413" lon="5.95196">
        <ele>997.08</ele>
        <time>2015-04-22T14:38:27Z</time>
      </trkpt>
      <trkpt lat="44.54359" lon="5.9522">
        <ele>1000.16</ele>
        <time>2015-04-22T14:38:40Z</time>
      </trkpt>
      <trkpt lat="44.54355" lon="5.95222">
        <ele>1000.3</ele>
        <time>2015-04-22T14:38:41Z</time>
      </trkpt>
      <trkpt lat="44.54279" lon="5.95227">
        <ele>1003.53</ele>
        <time>2015-04-22T14:38:57Z</time>
      </trkpt>
      <trkpt lat="44.54248" lon="5.95222">
        <ele>1004.89</ele>
        <time>2015-04-22T14:39:04Z</time>
      </trkpt>
      <trkpt lat="44.54213" lon="5.95215">
        <ele>1006.73</ele>
        <time>2015-04-22T14:39:12Z</time>
      </trkpt>
      <trkpt lat="44.54188" lon="5.95224">
        <ele>1008.2</ele>
        <time>2015-04-22T14:39:19Z</time>
      </trkpt>
      <trkpt lat="44.54183" lon="5.95244">
        <ele>1008.72</ele>
        <time>2015-04-22T14:39:23Z</time>
      </trkpt>
      <trkpt lat="44.54189" lon="5.9531">
        <ele>1010.23</ele>
        <time>2015-04-22T14:39:36Z</time>
      </trkpt>
      <trkpt lat="44.54199" lon="5.95349">
        <ele>1012.57</ele>
        <time>2015-04-22T14:39:48Z</time>
      </trkpt>
      <trkpt lat="44.54206" lon="5.95397">
        <ele>1015.38</ele>
        <time>2015-04-22T14:40:01Z</time>
      </trkpt>
      <trkpt lat="44.54212" lon="5.95453">
        <ele>1018.03</ele>
        <time>2015-04-22T14:40:16Z</time>
      </trkpt>
      <trkpt lat="44.54205" lon="5.95516">
        <ele>1021.05</ele>
        <time>2015-04-22T14:40:31Z</time>
      </trkpt>
      <trkpt lat="44.54193" lon="5.95569">
        <ele>1023.36</ele>
        <time>2015-04-22T14:40:44Z</time>
      </trkpt>
      <trkpt lat="44.54163" lon="5.95615">
        <ele>1025.44</ele>
        <time>2015-04-22T14:40:58Z</time>
      </trkpt>
      <trkpt lat="44.5415" lon="5.95658">
        <ele>1027.89</ele>
        <time>2015-04-22T14:41:11Z</time>
      </trkpt>
      <trkpt lat="44.54144" lon="5.95703">
        <ele>1030.5</ele>
        <time>2015-04-22T14:41:23Z</time>
      </trkpt>
      <trkpt lat="44.54139" lon="5.95763">
        <ele>1032.44</ele>
        <time>2015-04-22T14:41:35Z</time>
      </trkpt>
      <trkpt lat="44.54139" lon="5.9583">
        <ele>1033.94</ele>
        <time>2015-04-22T14:41:48Z</time>
      </trkpt>
      <trkpt lat="44.54115" lon="5.95889">
        <ele>1034.9</ele>
        <time>2015-04-22T14:42:01Z</time>
      </trkpt>
      <trkpt lat="44.54105" lon="5.95908">
        <ele>1034.84</ele>
        <time>2015-04-22T14:42:05Z</time>
      </trkpt>
      <trkpt lat="44.54063" lon="5.9596">
        <ele>1034.98</ele>
        <time>2015-04-22T14:42:15Z</time>
      </trkpt>
      <trkpt lat="44.54017" lon="5.9601">
        <ele>1036.02</ele>
        <time>2015-04-22T14:42:26Z</time>
      </trkpt>
      <trkpt lat="44.53996" lon="5.96072">
        <ele>1037.68</ele>
        <time>2015-04-22T14:42:38Z</time>
      </trkpt>
      <trkpt lat="44.53962" lon="5.9613">
        <ele>1040.18</ele>
        <time>2015-04-22T14:42:52Z</time>
      </trkpt>
      <trkpt lat="44.53925" lon="5.96176">
        <ele>1042.5</ele>
        <time>2015-04-22T14:43:05Z</time>
      </trkpt>
      <trkpt lat="44.53882" lon="5.96221">
        <ele>1044.39</ele>
        <time>2015-04-22T14:43:20Z</time>
      </trkpt>
      <trkpt lat="44.53845" lon="5.96261">
        <ele>1045.52</ele>
        <time>2015-04-22T14:43:35Z</time>
      </trkpt>
      <trkpt lat="44.53811" lon="5.96314">
        <ele>1047.08</ele>
        <time>2015-04-22T14:43:51Z</time>
      </trkpt>
      <trkpt lat="44.53799" lon="5.96334">
        <ele>1047.83</ele>
        <time>2015-04-22T14:43:58Z</time>
      </trkpt>
      <trkpt lat="44.53766" lon="5.96323">
        <ele>1050.87</ele>
        <time>2015-04-22T14:44:12Z</time>
      </trkpt>
      <trkpt lat="44.5373" lon="5.96317">
        <ele>1053.88</ele>
        <time>2015-04-22T14:44:27Z</time>
      </trkpt>
      <trkpt lat="44.53708" lon="5.96324">
        <ele>1056.01</ele>
        <time>2015-04-22T14:44:39Z</time>
      </trkpt>
      <trkpt lat="44.53675" lon="5.96331">
        <ele>1058.55</ele>
        <time>2015-04-22T14:44:54Z</time>
      </trkpt>
      <trkpt lat="44.53643" lon="5.96331">
        <ele>1061.24</ele>
        <time>2015-04-22T14:45:10Z</time>
      </trkpt>
      <trkpt lat="44.53635" lon="5.9633">
        <ele>1061.68</ele>
        <time>2015-04-22T14:45:14Z</time>
      </trkpt>
      <trkpt lat="44.53601" lon="5.96316">
        <ele>1064.82</ele>
        <time>2015-04-22T14:45:29Z</time>
      </trkpt>
      <trkpt lat="44.53569" lon="5.96301">
        <ele>1067.99</ele>
        <time>2015-04-22T14:45:44Z</time>
      </trkpt>
      <trkpt lat="44.53548" lon="5.96286">
        <ele>1070.28</ele>
        <time>2015-04-22T14:45:54Z</time>
      </trkpt>
      <trkpt lat="44.53543" lon="5.9628">
        <ele>1071.14</ele>
        <time>2015-04-22T14:46:00Z</time>
      </trkpt>
    </trkseg>
  </trk>
</gpx>